Observation data for Big Lake on 02/24/2021      Previous  Date  Next       Current Mesonet Observations  Soil Data  Daily Summary Page  Observations in Plain Language
KBI1 240600Z 19007KT 14/10 A2996 RMK A01 T01430104  RH  078%=      5-min Rain = 0
KBI1 240601Z 19007KT 14/11 A2996 RMK A01 T01420105  RH  079%=      5-min Rain = 0
KBI1 240602Z 18007KT 14/11 A2996 RMK A01 T01420106  RH  079%=      5-min Rain = 0
KBI1 240603Z 18006KT 14/11 A2996 RMK A01 T01420105  RH  079%=      5-min Rain = 0
KBI1 240604Z 19007KT 14/11 A2996 RMK A01 T01420106  RH  079%=      5-min Rain = 0
KBI1 240605Z 19007KT 14/11 A2996 RMK A01 T01420105  RH  079%=      5-min Rain = 0
KBI1 240606Z 18007KT 14/11 A2996 RMK A01 T01410106  RH  079%=      5-min Rain = 0
KBI1 240607Z 19007KT 14/11 A2996 RMK A01 T01420106  RH  079%=      5-min Rain = 0
KBI1 240608Z 19007KT 14/11 A2996 RMK A01 T01420105  RH  078%=      5-min Rain = 0
KBI1 240609Z 18008KT 14/11 A2996 RMK A01 T01420106  RH  079%=      5-min Rain = 0
KBI1 240610Z 19007KT 14/11 A2996 RMK A01 T01420106  RH  079%=      5-min Rain = 0
KBI1 240611Z 19008KT 14/11 A2996 RMK A01 T01420106  RH  079%=      5-min Rain = 0
KBI1 240612Z 18007KT 14/11 A2996 RMK A01 T01420106  RH  079%=      5-min Rain = 0
KBI1 240613Z 18007KT 14/11 A2996 RMK A01 T01420106  RH  078%=      5-min Rain = 0
KBI1 240614Z 18007KT 14/11 A2996 RMK A01 T01420106  RH  079%=      5-min Rain = 0
KBI1 240615Z 19006KT 14/11 A2996 RMK A01 T01420106  RH  079%=      5-min Rain = 0
KBI1 240616Z 19007KT 14/11 A2996 RMK A01 T01420105  RH  079%=      5-min Rain = 0
KBI1 240617Z 19006KT 14/11 A2996 RMK A01 T01410105  RH  079%=      5-min Rain = 0
KBI1 240618Z 18007KT 14/11 A2996 RMK A01 T01400105  RH  079%=      5-min Rain = 0
KBI1 240619Z 18006KT 14/11 A2996 RMK A01 T01410105  RH  079%=      5-min Rain = 0
KBI1 240620Z 18007KT 14/11 A2996 RMK A01 T01400105  RH  079%=      5-min Rain = 0
KBI1 240621Z 18006KT 14/11 A2996 RMK A01 T01400105  RH  079%=      5-min Rain = 0
KBI1 240622Z 18005KT 14/11 A2996 RMK A01 T01400105  RH  079%=      5-min Rain = 0
KBI1 240623Z 18006KT 14/11 A2996 RMK A01 T01400105  RH  079%=      5-min Rain = 0
KBI1 240624Z 18006KT 14/11 A2996 RMK A01 T01400105  RH  079%=      5-min Rain = 0
KBI1 240625Z 18007KT 14/10 A2996 RMK A01 T01400104  RH  079%=      5-min Rain = 0
KBI1 240626Z 18006KT 14/11 A2996 RMK A01 T01400105  RH  079%=      5-min Rain = 0
KBI1 240627Z 18006KT 14/11 A2996 RMK A01 T01400105  RH  079%=      5-min Rain = 0
KBI1 240628Z 18007KT 14/11 A2996 RMK A01 T01400105  RH  079%=      5-min Rain = 0
KBI1 240629Z 19007KT 14/10 A2995 RMK A01 T01400104  RH  079%=      5-min Rain = 0
KBI1 240630Z 19007KT 14/11 A2995 RMK A01 T01400105  RH  079%=      5-min Rain = 0
KBI1 240631Z 18007KT 14/11 A2995 RMK A01 T01400105  RH  079%=      5-min Rain = 0
KBI1 240632Z 18007KT 14/11 A2995 RMK A01 T01400105  RH  079%=      5-min Rain = 0
KBI1 240633Z 18007KT 14/11 A2995 RMK A01 T01400105  RH  079%=      5-min Rain = 0
KBI1 240634Z 18007KT 14/11 A2995 RMK A01 T01400105  RH  079%=      5-min Rain = 0
KBI1 240635Z 18006KT 14/11 A2995 RMK A01 T01400105  RH  079%=      5-min Rain = 0
KBI1 240636Z 18007KT 14/10 A2995 RMK A01 T01400104  RH  079%=      5-min Rain = 0
KBI1 240637Z 19008KT 14/10 A2995 RMK A01 T01390104  RH  079%=      5-min Rain = 0
KBI1 240638Z 19007KT 14/11 A2995 RMK A01 T01390105  RH  079%=      5-min Rain = 0
KBI1 240639Z 19007KT 14/10 A2995 RMK A01 T01390104  RH  079%=      5-min Rain = 0
KBI1 240640Z 19007KT 14/11 A2995 RMK A01 T01400105  RH  079%=      5-min Rain = 0
KBI1 240641Z 19008KT 14/11 A2995 RMK A01 T01400105  RH  079%=      5-min Rain = 0
KBI1 240642Z 19007KT 14/11 A2995 RMK A01 T01400105  RH  079%=      5-min Rain = 0
KBI1 240643Z 19008KT 14/11 A2995 RMK A01 T01410105  RH  079%=      5-min Rain = 0
KBI1 240644Z 19007KT 14/11 A2995 RMK A01 T01410105  RH  079%=      5-min Rain = 0
KBI1 240645Z 19007KT 14/11 A2995 RMK A01 T01410105  RH  079%=      5-min Rain = 0
KBI1 240646Z 19007KT 14/11 A2995 RMK A01 T01410105  RH  079%=      5-min Rain = 0
KBI1 240647Z 19007KT 14/11 A2995 RMK A01 T01410105  RH  079%=      5-min Rain = 0
KBI1 240648Z 19007KT 14/11 A2995 RMK A01 T01420105  RH  079%=      5-min Rain = 0
KBI1 240649Z 19006KT 14/10 A2995 RMK A01 T01420104  RH  078%=      5-min Rain = 0
KBI1 240650Z 19005KT 14/10 A2995 RMK A01 T01400104  RH  079%=      5-min Rain = 0
KBI1 240651Z 19006KT 14/10 A2995 RMK A01 T01400103  RH  079%=      5-min Rain = 0
KBI1 240652Z 19007KT 14/10 A2995 RMK A01 T01390103  RH  079%=      5-min Rain = 0
KBI1 240653Z 19007KT 14/10 A2996 RMK A01 T01390104  RH  080%=      5-min Rain = 0
KBI1 240654Z 19007KT 14/11 A2996 RMK A01 T01400105  RH  079%=      5-min Rain = 0
KBI1 240655Z 19006KT 14/10 A2996 RMK A01 T01400104  RH  079%=      5-min Rain = 0
KBI1 240656Z 19007KT 14/10 A2996 RMK A01 T01400104  RH  079%=      5-min Rain = 0
KBI1 240657Z 19007KT 14/10 A2996 RMK A01 T01400104  RH  079%=      5-min Rain = 0
KBI1 240658Z 19007KT 14/10 A2996 RMK A01 T01400104  RH  079%=      5-min Rain = 0
KBI1 240659Z 19007KT 14/11 A2996 RMK A01 T01400105  RH  079%=      5-min Rain = 0
KBI1 240700Z 18009KT 14/11 A2995 RMK A01 T01400105  RH  079%=      5-min Rain = 0
KBI1 240701Z 19007KT 14/11 A2995 RMK A01 T01410105  RH  079%=      5-min Rain = 0
KBI1 240702Z 19006KT 14/10 A2995 RMK A01 T01410104  RH  079%=      5-min Rain = 0
KBI1 240703Z 19007KT 14/10 A2995 RMK A01 T01400104  RH  079%=      5-min Rain = 0
KBI1 240704Z 19006KT 14/10 A2995 RMK A01 T01390104  RH  079%=      5-min Rain = 0
KBI1 240705Z 19006KT 14/10 A2995 RMK A01 T01400104  RH  079%=      5-min Rain = 0
KBI1 240706Z 19007KT 14/10 A2995 RMK A01 T01400104  RH  079%=      5-min Rain = 0
KBI1 240707Z 19006KT 14/10 A2995 RMK A01 T01400104  RH  079%=      5-min Rain = 0
KBI1 240708Z 19007KT 14/10 A2995 RMK A01 T01400104  RH  079%=      5-min Rain = 0
KBI1 240709Z 19007KT 14/10 A2995 RMK A01 T01400104  RH  079%=      5-min Rain = 0
KBI1 240710Z 19006KT 14/10 A2995 RMK A01 T01390104  RH  079%=      5-min Rain = 0
KBI1 240711Z 19006KT 14/10 A2995 RMK A01 T01390104  RH  079%=      5-min Rain = 0
KBI1 240712Z 20006KT 14/10 A2995 RMK A01 T01390104  RH  079%=      5-min Rain = 0
KBI1 240713Z 20006KT 14/10 A2995 RMK A01 T01380103  RH  079%=      5-min Rain = 0
KBI1 240714Z 20006KT 14/10 A2996 RMK A01 T01380103  RH  079%=      5-min Rain = 0
KBI1 240715Z 20006KT 14/10 A2995 RMK A01 T01370103  RH  080%=      5-min Rain = 0
KBI1 240716Z 19006KT 14/10 A2996 RMK A01 T01370103  RH  080%=      5-min Rain = 0
KBI1 240717Z 19005KT 14/10 A2995 RMK A01 T01370103  RH  080%=      5-min Rain = 0
KBI1 240718Z 19006KT 14/10 A2995 RMK A01 T01370103  RH  080%=      5-min Rain = 0
KBI1 240719Z 19006KT 14/10 A2995 RMK A01 T01370103  RH  080%=      5-min Rain = 0
KBI1 240720Z 19006KT 14/10 A2995 RMK A01 T01370103  RH  080%=      5-min Rain = 0
KBI1 240721Z 19006KT 14/10 A2995 RMK A01 T01370103  RH  080%=      5-min Rain = 0
KBI1 240722Z 19007KT 14/10 A2995 RMK A01 T01370103  RH  080%=      5-min Rain = 0
KBI1 240723Z 20007KT 14/10 A2995 RMK A01 T01370103  RH  080%=      5-min Rain = 0
KBI1 240724Z 20007KT 14/10 A2995 RMK A01 T01370103  RH  080%=      5-min Rain = 0
KBI1 240725Z 20007KT 14/10 A2995 RMK A01 T01380103  RH  079%=      5-min Rain = 0
KBI1 240726Z 20006KT 14/10 A2995 RMK A01 T01370103  RH  080%=      5-min Rain = 0
KBI1 240727Z 20005KT 14/10 A2996 RMK A01 T01360101  RH  080%=      5-min Rain = 0
KBI1 240728Z 20006KT 14/10 A2996 RMK A01 T01350102  RH  080%=      5-min Rain = 0
KBI1 240729Z 19006KT 14/10 A2996 RMK A01 T01350102  RH  081%=      5-min Rain = 0
KBI1 240730Z 20007KT 13/10 A2996 RMK A01 T01340102  RH  081%=      5-min Rain = 0
KBI1 240731Z 19008KT 13/10 A2995 RMK A01 T01340102  RH  081%=      5-min Rain = 0
KBI1 240732Z 19008KT 14/10 A2995 RMK A01 T01350103  RH  081%=      5-min Rain = 0
KBI1 240733Z 19007KT 14/10 A2995 RMK A01 T01360103  RH  080%=      5-min Rain = 0
KBI1 240734Z 19008KT 14/10 A2995 RMK A01 T01360103  RH  080%=      5-min Rain = 0
KBI1 240735Z 19007KT 14/10 A2995 RMK A01 T01360102  RH  080%=      5-min Rain = 0
KBI1 240736Z 19007KT 14/10 A2996 RMK A01 T01360102  RH  080%=      5-min Rain = 0
KBI1 240737Z 19008KT 14/10 A2996 RMK A01 T01360103  RH  081%=      5-min Rain = 0
KBI1 240738Z 19007KT 14/10 A2996 RMK A01 T01380103  RH  080%=      5-min Rain = 0
KBI1 240739Z 19006KT 14/10 A2996 RMK A01 T01370102  RH  079%=      5-min Rain = 0
KBI1 240740Z 19008KT 14/10 A2996 RMK A01 T01370103  RH  080%=      5-min Rain = 0
KBI1 240741Z 19007KT 14/10 A2996 RMK A01 T01370103  RH  080%=      5-min Rain = 0
KBI1 240742Z 19008KT 14/10 A2996 RMK A01 T01370103  RH  080%=      5-min Rain = 0
KBI1 240743Z 18007KT 14/10 A2996 RMK A01 T01370102  RH  080%=      5-min Rain = 0
KBI1 240744Z 19007KT 14/10 A2996 RMK A01 T01370103  RH  080%=      5-min Rain = 0
KBI1 240745Z 20007KT 14/10 A2996 RMK A01 T01360103  RH  080%=      5-min Rain = 0
KBI1 240746Z 20007KT 14/10 A2996 RMK A01 T01360102  RH  080%=      5-min Rain = 0
KBI1 240747Z 19007KT 14/10 A2996 RMK A01 T01360103  RH  080%=      5-min Rain = 0
KBI1 240748Z 20007KT 14/10 A2996 RMK A01 T01360103  RH  080%=      5-min Rain = 0
KBI1 240749Z 20007KT 14/10 A2996 RMK A01 T01360102  RH  080%=      5-min Rain = 0
KBI1 240750Z 20007KT 14/10 A2996 RMK A01 T01360102  RH  080%=      5-min Rain = 0
KBI1 240751Z 19007KT 14/10 A2996 RMK A01 T01350102  RH  080%=      5-min Rain = 0
KBI1 240752Z 18007KT 14/10 A2996 RMK A01 T01350102  RH  080%=      5-min Rain = 0
KBI1 240753Z 19007KT 13/10 A2996 RMK A01 T01330101  RH  081%=      5-min Rain = 0
KBI1 240754Z 18007KT 13/10 A2996 RMK A01 T01330102  RH  081%=      5-min Rain = 0
KBI1 240755Z 18009KT 13/10 A2996 RMK A01 T01320102  RH  082%=      5-min Rain = 0
KBI1 240756Z 19007KT 13/10 A2996 RMK A01 T01320102  RH  082%=      5-min Rain = 0
KBI1 240757Z 20008KT 13/10 A2996 RMK A01 T01320102  RH  082%=      5-min Rain = 0
KBI1 240758Z 21008KT 13/10 A2996 RMK A01 T01320103  RH  082%=      5-min Rain = 0
KBI1 240759Z 25007KT 13/10 A2996 RMK A01 T01330102  RH  081%=      5-min Rain = 0
KBI1 240800Z 27008KT 13/10 A2996 RMK A01 T01310099  RH  081%=      5-min Rain = 0
KBI1 240801Z 29007KT 13/10 A2996 RMK A01 T01290098  RH  082%=      5-min Rain = 0
KBI1 240802Z 28006KT 13/10 A2996 RMK A01 T01270099  RH  083%=      5-min Rain = 0
KBI1 240803Z 25006KT 13/10 A2996 RMK A01 T01270099  RH  083%=      5-min Rain = 0
KBI1 240804Z 24006KT 13/10 A2996 RMK A01 T01270099  RH  083%=      5-min Rain = 0
KBI1 240805Z 23006KT 13/10 A2996 RMK A01 T01270101  RH  084%=      5-min Rain = 0
KBI1 240806Z 23006KT 13/11 A2996 RMK A01 T01320105  RH  084%=      5-min Rain = 0
KBI1 240807Z 22007KT 14/11 A2996 RMK A01 T01370107  RH  082%=      5-min Rain = 0
KBI1 240808Z 21007KT 14/11 A2996 RMK A01 T01400105  RH  080%=      5-min Rain = 0
KBI1 240809Z 21007KT 14/11 A2996 RMK A01 T01410105  RH  079%=      5-min Rain = 0
KBI1 240810Z 22005KT 14/10 A2996 RMK A01 T01400103  RH  078%=      5-min Rain = 0
KBI1 240811Z 22004KT 14/10 A2996 RMK A01 T01370101  RH  079%=      5-min Rain = 0
KBI1 240812Z 21006KT 14/10 A2996 RMK A01 T01360101  RH  079%=      5-min Rain = 0
KBI1 240813Z 20006KT 13/10 A2996 RMK A01 T01340100  RH  080%=      5-min Rain = 0
KBI1 240814Z 21006KT 13/10 A2996 RMK A01 T01330101  RH  081%=      5-min Rain = 0
KBI1 240815Z 21007KT 13/10 A2996 RMK A01 T01330102  RH  081%=      5-min Rain = 0
KBI1 240816Z 21006KT 13/10 A2996 RMK A01 T01340102  RH  081%=      5-min Rain = 0
KBI1 240817Z 22007KT 13/10 A2996 RMK A01 T01340101  RH  081%=      5-min Rain = 0
KBI1 240818Z 22007KT 13/10 A2996 RMK A01 T01330101  RH  081%=      5-min Rain = 0
KBI1 240819Z 21007KT 13/10 A2996 RMK A01 T01330101  RH  081%=      5-min Rain = 0
KBI1 240820Z 19008KT 13/10 A2996 RMK A01 T01320101  RH  082%=      5-min Rain = 0
KBI1 240821Z 19009KT 13/10 A2996 RMK A01 T01320101  RH  081%=      5-min Rain = 0
KBI1 240822Z 19010KT 13/10 A2995 RMK A01 T01310102  RH  082%=      5-min Rain = 0
KBI1 240823Z 19010KT 13/10 A2995 RMK A01 T01320102  RH  082%=      5-min Rain = 0
KBI1 240824Z 19010KT 13/10 A2995 RMK A01 T01320102  RH  082%=      5-min Rain = 0
KBI1 240825Z 19011KT 13/10 A2995 RMK A01 T01330102  RH  082%=      5-min Rain = 0
KBI1 240826Z 19009KT 13/10 A2995 RMK A01 T01330103  RH  082%=      5-min Rain = 0
KBI1 240827Z 18010KT 13/10 A2995 RMK A01 T01330102  RH  081%=      5-min Rain = 0
KBI1 240828Z 19010KT 13/10 A2995 RMK A01 T01330103  RH  082%=      5-min Rain = 0
KBI1 240829Z 19009KT 13/10 A2995 RMK A01 T01340103  RH  082%=      5-min Rain = 0
KBI1 240830Z 19009KT 13/10 A2995 RMK A01 T01340103  RH  081%=      5-min Rain = 0
KBI1 240831Z 19010KT 13/10 A2995 RMK A01 T01340103  RH  082%=      5-min Rain = 0
KBI1 240832Z 19010KT 14/10 A2995 RMK A01 T01350103  RH  081%=      5-min Rain = 0
KBI1 240833Z 19009KT 14/10 A2995 RMK A01 T01350103  RH  081%=      5-min Rain = 0
KBI1 240834Z 19009KT 14/10 A2995 RMK A01 T01350103  RH  081%=      5-min Rain = 0
KBI1 240835Z 20009KT 13/10 A2995 RMK A01 T01340103  RH  081%=      5-min Rain = 0
KBI1 240836Z 20009KT 13/10 A2995 RMK A01 T01340103  RH  082%=      5-min Rain = 0
KBI1 240837Z 20008KT 13/10 A2995 RMK A01 T01330102  RH  082%=      5-min Rain = 0
KBI1 240838Z 20010KT 13/10 A2995 RMK A01 T01330102  RH  082%=      5-min Rain = 0
KBI1 240839Z 19009KT 13/10 A2995 RMK A01 T01320102  RH  082%=      5-min Rain = 0
KBI1 240840Z 19009KT 13/10 A2995 RMK A01 T01320102  RH  082%=      5-min Rain = 0
KBI1 240841Z 19009KT 13/10 A2995 RMK A01 T01310102  RH  082%=      5-min Rain = 0
KBI1 240842Z 19009KT 13/10 A2995 RMK A01 T01300101  RH  082%=      5-min Rain = 0
KBI1 240843Z 19010KT 13/10 A2995 RMK A01 T01290100  RH  083%=      5-min Rain = 0
KBI1 240844Z 18010KT 13/10 A2995 RMK A01 T01290102  RH  084%=      5-min Rain = 0
KBI1 240845Z 19010KT 13/10 A2995 RMK A01 T01280101  RH  083%=      5-min Rain = 0
KBI1 240846Z 18010KT 13/10 A2995 RMK A01 T01290102  RH  084%=      5-min Rain = 0
KBI1 240847Z 18010KT 13/10 A2995 RMK A01 T01290102  RH  084%=      5-min Rain = 0
KBI1 240848Z 18009KT 13/10 A2995 RMK A01 T01290101  RH  083%=      5-min Rain = 0
KBI1 240849Z 18009KT 13/10 A2995 RMK A01 T01280101  RH  083%=      5-min Rain = 0
KBI1 240850Z 19008KT 13/10 A2995 RMK A01 T01280101  RH  084%=      5-min Rain = 0
KBI1 240851Z 19008KT 13/10 A2995 RMK A01 T01280101  RH  084%=      5-min Rain = 0
KBI1 240852Z 19008KT 13/10 A2995 RMK A01 T01270100  RH  084%=      5-min Rain = 0
KBI1 240853Z 19008KT 13/10 A2995 RMK A01 T01260100  RH  084%=      5-min Rain = 0
KBI1 240854Z 19009KT 13/10 A2995 RMK A01 T01260100  RH  084%=      5-min Rain = 0
KBI1 240855Z 19008KT 13/10 A2995 RMK A01 T01260101  RH  084%=      5-min Rain = 0
KBI1 240856Z 19007KT 13/10 A2995 RMK A01 T01260100  RH  084%=      5-min Rain = 0
KBI1 240857Z 19008KT 13/10 A2995 RMK A01 T01260101  RH  085%=      5-min Rain = 0
KBI1 240858Z 19008KT 13/10 A2995 RMK A01 T01260100  RH  084%=      5-min Rain = 0
KBI1 240859Z 19008KT 13/10 A2995 RMK A01 T01260101  RH  084%=      5-min Rain = 0
KBI1 240900Z 19008KT 13/10 A2995 RMK A01 T01250100  RH  085%=      5-min Rain = 0
KBI1 240901Z 19007KT 13/10 A2995 RMK A01 T01250101  RH  085%=      5-min Rain = 0
KBI1 240902Z 19008KT 13/10 A2995 RMK A01 T01260101  RH  085%=      5-min Rain = 0
KBI1 240903Z 19007KT 13/10 A2995 RMK A01 T01250101  RH  085%=      5-min Rain = 0
KBI1 240904Z 20007KT 13/10 A2995 RMK A01 T01260101  RH  085%=      5-min Rain = 0
KBI1 240905Z 20007KT 13/10 A2995 RMK A01 T01250100  RH  085%=      5-min Rain = 0
KBI1 240906Z 19007KT 12/10 A2995 RMK A01 T01240099  RH  085%=      5-min Rain = 0
KBI1 240907Z 19008KT 12/10 A2995 RMK A01 T01230099  RH  085%=      5-min Rain = 0
KBI1 240908Z 19008KT 12/10 A2995 RMK A01 T01230100  RH  086%=      5-min Rain = 0
KBI1 240909Z 19008KT 12/10 A2995 RMK A01 T01230099  RH  086%=      5-min Rain = 0
KBI1 240910Z 19008KT 12/10 A2995 RMK A01 T01230100  RH  086%=      5-min Rain = 0
KBI1 240911Z 19008KT 12/10 A2995 RMK A01 T01230100  RH  086%=      5-min Rain = 0
KBI1 240912Z 19008KT 12/10 A2995 RMK A01 T01220099  RH  086%=      5-min Rain = 0
KBI1 240913Z 19007KT 12/10 A2995 RMK A01 T01230100  RH  086%=      5-min Rain = 0
KBI1 240914Z 19007KT 12/10 A2995 RMK A01 T01220099  RH  086%=      5-min Rain = 0
KBI1 240915Z 19008KT 12/10 A2995 RMK A01 T01220100  RH  086%=      5-min Rain = 0
KBI1 240916Z 19007KT 12/10 A2995 RMK A01 T01220100  RH  086%=      5-min Rain = 0
KBI1 240917Z 19007KT 12/10 A2995 RMK A01 T01220100  RH  086%=      5-min Rain = 0
KBI1 240918Z 19007KT 12/10 A2995 RMK A01 T01220100  RH  086%=      5-min Rain = 0
KBI1 240919Z 19007KT 12/10 A2995 RMK A01 T01220099  RH  086%=      5-min Rain = 0
KBI1 240920Z 19007KT 12/10 A2995 RMK A01 T01210098  RH  086%=      5-min Rain = 0
KBI1 240921Z 19007KT 12/10 A2995 RMK A01 T01200099  RH  087%=      5-min Rain = 0
KBI1 240922Z 19007KT 12/10 A2995 RMK A01 T01200099  RH  087%=      5-min Rain = 0
KBI1 240923Z 19007KT 12/10 A2995 RMK A01 T01200099  RH  087%=      5-min Rain = 0
KBI1 240924Z 19007KT 12/10 A2995 RMK A01 T01200099  RH  087%=      5-min Rain = 0
KBI1 240925Z 19008KT 12/10 A2995 RMK A01 T01200099  RH  087%=      5-min Rain = 0
KBI1 240926Z 19008KT 12/10 A2995 RMK A01 T01190099  RH  087%=      5-min Rain = 0
KBI1 240927Z 19007KT 12/10 A2995 RMK A01 T01190099  RH  087%=      5-min Rain = 0
KBI1 240928Z 19007KT 12/10 A2995 RMK A01 T01190099  RH  087%=      5-min Rain = 0
KBI1 240929Z 19007KT 12/10 A2995 RMK A01 T01180098  RH  087%=      5-min Rain = 0
KBI1 240930Z 19007KT 12/10 A2995 RMK A01 T01190099  RH  088%=      5-min Rain = 0
KBI1 240931Z 19007KT 12/10 A2995 RMK A01 T01190099  RH  088%=      5-min Rain = 0
KBI1 240932Z 19006KT 12/10 A2995 RMK A01 T01180099  RH  088%=      5-min Rain = 0
KBI1 240933Z 19005KT 12/10 A2995 RMK A01 T01180098  RH  087%=      5-min Rain = 0
KBI1 240934Z 20006KT 12/10 A2995 RMK A01 T01180098  RH  088%=      5-min Rain = 0
KBI1 240935Z 19006KT 12/10 A2995 RMK A01 T01170098  RH  088%=      5-min Rain = 0
KBI1 240936Z 19006KT 12/10 A2995 RMK A01 T01170098  RH  088%=      5-min Rain = 0
KBI1 240937Z 19006KT 12/10 A2995 RMK A01 T01160097  RH  089%=      5-min Rain = 0
KBI1 240938Z 19007KT 12/10 A2995 RMK A01 T01160098  RH  089%=      5-min Rain = 0
KBI1 240939Z 19007KT 12/10 A2995 RMK A01 T01160099  RH  090%=      5-min Rain = 0
KBI1 240940Z 19007KT 12/10 A2995 RMK A01 T01170101  RH  090%=      5-min Rain = 0
KBI1 240941Z 19007KT 12/10 A2995 RMK A01 T01170100  RH  089%=      5-min Rain = 0
KBI1 240942Z 19007KT 12/10 A2995 RMK A01 T01170099  RH  089%=      5-min Rain = 0
KBI1 240943Z 19008KT 12/10 A2995 RMK A01 T01170100  RH  089%=      5-min Rain = 0
KBI1 240944Z 19007KT 12/10 A2995 RMK A01 T01170100  RH  089%=      5-min Rain = 0
KBI1 240945Z 19007KT 12/10 A2995 RMK A01 T01180099  RH  089%=      5-min Rain = 0
KBI1 240946Z 19007KT 12/10 A2995 RMK A01 T01180099  RH  089%=      5-min Rain = 0
KBI1 240947Z 19007KT 12/10 A2995 RMK A01 T01170100  RH  089%=      5-min Rain = 0
KBI1 240948Z 19007KT 12/10 A2995 RMK A01 T01180100  RH  089%=      5-min Rain = 0
KBI1 240949Z 19008KT 12/10 A2995 RMK A01 T01180100  RH  089%=      5-min Rain = 0
KBI1 240950Z 19008KT 12/10 A2996 RMK A01 T01180100  RH  089%=      5-min Rain = 0
KBI1 240951Z 19008KT 12/10 A2996 RMK A01 T01180100  RH  089%=      5-min Rain = 0
KBI1 240952Z 20008KT 12/10 A2996 RMK A01 T01190100  RH  088%=      5-min Rain = 0
KBI1 240953Z 20008KT 12/10 A2996 RMK A01 T01190099  RH  088%=      5-min Rain = 0
KBI1 240954Z 20008KT 12/10 A2996 RMK A01 T01180099  RH  088%=      5-min Rain = 0
KBI1 240955Z 20008KT 12/10 A2996 RMK A01 T01180099  RH  088%=      5-min Rain = 0
KBI1 240956Z 20008KT 12/10 A2996 RMK A01 T01170099  RH  089%=      5-min Rain = 0
KBI1 240957Z 20008KT 12/10 A2996 RMK A01 T01170099  RH  089%=      5-min Rain = 0
KBI1 240958Z 20008KT 12/10 A2996 RMK A01 T01170099  RH  089%=      5-min Rain = 0
KBI1 240959Z 19008KT 12/10 A2996 RMK A01 T01170099  RH  089%=      5-min Rain = 0
KBI1 241000Z 20008KT 12/10 A2996 RMK A01 T01170100  RH  089%=      5-min Rain = 0
KBI1 241001Z 20008KT 12/10 A2996 RMK A01 T01170100  RH  089%=      5-min Rain = 0
KBI1 241002Z 19008KT 12/10 A2996 RMK A01 T01170099  RH  089%=      5-min Rain = 0
KBI1 241003Z 19008KT 12/10 A2995 RMK A01 T01170100  RH  089%=      5-min Rain = 0
KBI1 241004Z 19007KT 12/10 A2995 RMK A01 T01170100  RH  089%=      5-min Rain = 0
KBI1 241005Z 20008KT 12/10 A2996 RMK A01 T01170099  RH  089%=      5-min Rain = 0
KBI1 241006Z 20008KT 12/10 A2995 RMK A01 T01170099  RH  089%=      5-min Rain = 0
KBI1 241007Z 20008KT 12/10 A2995 RMK A01 T01160099  RH  089%=      5-min Rain = 0
KBI1 241008Z 19008KT 12/10 A2995 RMK A01 T01160099  RH  090%=      5-min Rain = 0
KBI1 241009Z 20008KT 12/10 A2996 RMK A01 T01160100  RH  090%=      5-min Rain = 0
KBI1 241010Z 19008KT 12/10 A2996 RMK A01 T01160100  RH  090%=      5-min Rain = 0
KBI1 241011Z 20008KT 12/10 A2996 RMK A01 T01160100  RH  090%=      5-min Rain = 0
KBI1 241012Z 19008KT 12/10 A2996 RMK A01 T01170100  RH  090%=      5-min Rain = 0
KBI1 241013Z 19008KT 12/10 A2996 RMK A01 T01160100  RH  089%=      5-min Rain = 0
KBI1 241014Z 19008KT 12/10 A2996 RMK A01 T01160100  RH  090%=      5-min Rain = 0
KBI1 241015Z 19008KT 12/10 A2995 RMK A01 T01160100  RH  090%=      5-min Rain = 0
KBI1 241016Z 19008KT 12/10 A2995 RMK A01 T01160100  RH  090%=      5-min Rain = 0
KBI1 241017Z 19008KT 12/10 A2995 RMK A01 T01150100  RH  090%=      5-min Rain = 0
KBI1 241018Z 19008KT 12/10 A2995 RMK A01 T01150100  RH  090%=      5-min Rain = 0
KBI1 241019Z 19008KT 12/10 A2995 RMK A01 T01150100  RH  090%=      5-min Rain = 0
KBI1 241020Z 19008KT 11/10 A2995 RMK A01 T01140099  RH  090%=      5-min Rain = 0
KBI1 241021Z 19008KT 11/10 A2995 RMK A01 T01140099  RH  091%=      5-min Rain = 0
KBI1 241022Z 19008KT 11/10 A2995 RMK A01 T01140100  RH  091%=      5-min Rain = 0
KBI1 241023Z 19008KT 11/10 A2995 RMK A01 T01130100  RH  091%=      5-min Rain = 0
KBI1 241024Z 19008KT 11/10 A2995 RMK A01 T01140100  RH  091%=      5-min Rain = 0
KBI1 241025Z 19008KT 11/10 A2995 RMK A01 T01140100  RH  091%=      5-min Rain = 0
KBI1 241026Z 19008KT 11/10 A2996 RMK A01 T01130099  RH  091%=      5-min Rain = 0
KBI1 241027Z 19008KT 11/10 A2996 RMK A01 T01130100  RH  092%=      5-min Rain = 0
KBI1 241028Z 19008KT 11/10 A2996 RMK A01 T01130099  RH  091%=      5-min Rain = 0
KBI1 241029Z 19009KT 11/10 A2996 RMK A01 T01120099  RH  091%=      5-min Rain = 0
KBI1 241030Z 19008KT 11/10 A2996 RMK A01 T01120099  RH  092%=      5-min Rain = 0
KBI1 241031Z 19009KT 11/10 A2996 RMK A01 T01120099  RH  092%=      5-min Rain = 0
KBI1 241032Z 19008KT 11/10 A2996 RMK A01 T01120100  RH  092%=      5-min Rain = 0
KBI1 241033Z 19008KT 11/10 A2996 RMK A01 T01120100  RH  093%=      5-min Rain = 0
KBI1 241034Z 19008KT 11/10 A2996 RMK A01 T01120100  RH  092%=      5-min Rain = 0
KBI1 241035Z 19008KT 11/10 A2996 RMK A01 T01120099  RH  092%=      5-min Rain = 0
KBI1 241036Z 19008KT 11/10 A2996 RMK A01 T01110099  RH  092%=      5-min Rain = 0
KBI1 241037Z 19008KT 11/10 A2996 RMK A01 T01110098  RH  092%=      5-min Rain = 0
KBI1 241038Z 19008KT 11/10 A2996 RMK A01 T01100099  RH  093%=      5-min Rain = 0
KBI1 241039Z 19008KT 11/10 A2996 RMK A01 T01100100  RH  093%=      5-min Rain = 0
KBI1 241040Z 19007KT 11/10 A2996 RMK A01 T01100099  RH  093%=      5-min Rain = 0
KBI1 241041Z 19007KT 11/10 A2996 RMK A01 T01100098  RH  093%=      5-min Rain = 0
KBI1 241042Z 18008KT 11/10 A2996 RMK A01 T01090098  RH  093%=      5-min Rain = 0
KBI1 241043Z 18008KT 11/10 A2996 RMK A01 T01080098  RH  093%=      5-min Rain = 0
KBI1 241044Z 18008KT 11/10 A2996 RMK A01 T01080098  RH  094%=      5-min Rain = 0
KBI1 241045Z 19008KT 11/10 A2996 RMK A01 T01080098  RH  094%=      5-min Rain = 0
KBI1 241046Z 19008KT 11/10 A2996 RMK A01 T01070098  RH  094%=      5-min Rain = 0
KBI1 241047Z 19008KT 11/10 A2996 RMK A01 T01070099  RH  094%=      5-min Rain = 0
KBI1 241048Z 19008KT 11/10 A2996 RMK A01 T01070098  RH  094%=      5-min Rain = 0
KBI1 241049Z 19009KT 11/10 A2996 RMK A01 T01070098  RH  094%=      5-min Rain = 0
KBI1 241050Z 19008KT 11/10 A2996 RMK A01 T01080099  RH  094%=      5-min Rain = 0
KBI1 241051Z 19009KT 11/10 A2996 RMK A01 T01080099  RH  094%=      5-min Rain = 0
KBI1 241052Z 19009KT 11/10 A2996 RMK A01 T01080098  RH  094%=      5-min Rain = 0
KBI1 241053Z 18009KT 11/10 A2996 RMK A01 T01080099  RH  094%=      5-min Rain = 0
KBI1 241054Z 18010KT 11/10 A2996 RMK A01 T01080100  RH  095%=      5-min Rain = 0
KBI1 241055Z 19009KT 11/10 A2996 RMK A01 T01090100  RH  095%=      5-min Rain = 0
KBI1 241056Z 19009KT 11/10 A2996 RMK A01 T01090100  RH  094%=      5-min Rain = 0
KBI1 241057Z 19008KT 11/10 A2996 RMK A01 T01090099  RH  094%=      5-min Rain = 0
KBI1 241058Z 18008KT 11/10 A2996 RMK A01 T01090099  RH  093%=      5-min Rain = 0
KBI1 241059Z 19009KT 11/10 A2996 RMK A01 T01090097  RH  093%=      5-min Rain = 0
KBI1 241100Z 19009KT 11/10 A2996 RMK A01 T01080099  RH  094%=      5-min Rain = 0
KBI1 241101Z 19009KT 11/10 A2996 RMK A01 T01080099  RH  094%=      5-min Rain = 0
KBI1 241102Z 19009KT 11/10 A2996 RMK A01 T01080099  RH  094%=      5-min Rain = 0
KBI1 241103Z 18009KT 11/10 A2996 RMK A01 T01080099  RH  094%=      5-min Rain = 0
KBI1 241104Z 19008KT 11/10 A2996 RMK A01 T01080099  RH  094%=      5-min Rain = 0
KBI1 241105Z 19009KT 11/10 A2996 RMK A01 T01080098  RH  094%=      5-min Rain = 0
KBI1 241106Z 18008KT 11/10 A2996 RMK A01 T01090098  RH  094%=      5-min Rain = 0
KBI1 241107Z 18008KT 11/10 A2996 RMK A01 T01080098  RH  094%=      5-min Rain = 0
KBI1 241108Z 18009KT 11/10 A2997 RMK A01 T01080098  RH  094%=      5-min Rain = 0
KBI1 241109Z 18009KT 11/10 A2997 RMK A01 T01070097  RH  094%=      5-min Rain = 0
KBI1 241110Z 18009KT 11/10 A2997 RMK A01 T01060097  RH  094%=      5-min Rain = 0
KBI1 241111Z 18009KT 11/10 A2997 RMK A01 T01060097  RH  094%=      5-min Rain = 0
KBI1 241112Z 18009KT 11/10 A2997 RMK A01 T01050097  RH  094%=      5-min Rain = 0
KBI1 241113Z 18010KT 11/10 A2997 RMK A01 T01050097  RH  095%=      5-min Rain = 0
KBI1 241114Z 18009KT 10/10 A2997 RMK A01 T01040097  RH  095%=      5-min Rain = 0
KBI1 241115Z 18009KT 10/10 A2997 RMK A01 T01040097  RH  095%=      5-min Rain = 0
KBI1 241116Z 18009KT 10/10 A2997 RMK A01 T01040096  RH  095%=      5-min Rain = 0
KBI1 241117Z 18008KT 10/10 A2997 RMK A01 T01030096  RH  095%=      5-min Rain = 0
KBI1 241118Z 18009KT 10/10 A2997 RMK A01 T01030096  RH  095%=      5-min Rain = 0
KBI1 241119Z 18008KT 10/10 A2997 RMK A01 T01020096  RH  096%=      5-min Rain = 0
KBI1 241120Z 18009KT 10/10 A2997 RMK A01 T01020096  RH  096%=      5-min Rain = 0
KBI1 241121Z 18008KT 10/10 A2997 RMK A01 T01020096  RH  096%=      5-min Rain = 0
KBI1 241122Z 18008KT 10/10 A2997 RMK A01 T01020095  RH  096%=      5-min Rain = 0
KBI1 241123Z 18008KT 10/10 A2997 RMK A01 T01020096  RH  096%=      5-min Rain = 0
KBI1 241124Z 18008KT 10/10 A2997 RMK A01 T01010095  RH  096%=      5-min Rain = 0
KBI1 241125Z 17008KT 10/10 A2997 RMK A01 T01010096  RH  097%=      5-min Rain = 0
KBI1 241126Z 17009KT 10/10 A2997 RMK A01 T01010096  RH  096%=      5-min Rain = 0
KBI1 241127Z 17009KT 10/10 A2997 RMK A01 T01010096  RH  097%=      5-min Rain = 0
KBI1 241128Z 17009KT 10/10 A2997 RMK A01 T01010097  RH  097%=      5-min Rain = 0
KBI1 241129Z 17009KT 10/10 A2997 RMK A01 T01020097  RH  097%=      5-min Rain = 0
KBI1 241130Z 17010KT 10/10 A2997 RMK A01 T01020097  RH  097%=      5-min Rain = 0
KBI1 241131Z 17010KT 10/10 A2997 RMK A01 T01020097  RH  097%=      5-min Rain = 0
KBI1 241132Z 17009KT 10/10 A2997 RMK A01 T01020097  RH  097%=      5-min Rain = 0
KBI1 241133Z 17011KT 10/10 A2997 RMK A01 T01020097  RH  097%=      5-min Rain = 0
KBI1 241134Z 17010KT 10/10 A2997 RMK A01 T01020097  RH  097%=      5-min Rain = 0
KBI1 241135Z 17010KT 10/10 A2997 RMK A01 T01020097  RH  097%=      5-min Rain = 0
KBI1 241136Z 17010KT 10/10 A2997 RMK A01 T01030098  RH  097%=      5-min Rain = 0
KBI1 241137Z 17010KT 10/10 A2997 RMK A01 T01030098  RH  097%=      5-min Rain = 0
KBI1 241138Z 17011KT 10/10 A2997 RMK A01 T01040099  RH  097%=      5-min Rain = 0
KBI1 241139Z 17011KT 10/10 A2997 RMK A01 T01040099  RH  097%=      5-min Rain = 0
KBI1 241140Z 17011KT 11/10 A2997 RMK A01 T01050100  RH  096%=      5-min Rain = 0
KBI1 241141Z 17012KT 11/10 A2997 RMK A01 T01060100  RH  096%=      5-min Rain = 0
KBI1 241142Z 17012KT 11/10 A2997 RMK A01 T01070102  RH  096%=      5-min Rain = 0
KBI1 241143Z 17011KT 11/10 A2998 RMK A01 T01090102  RH  095%=      5-min Rain = 0
KBI1 241144Z 17011KT 11/10 A2998 RMK A01 T01090101  RH  095%=      5-min Rain = 0
KBI1 241145Z 17011KT 11/10 A2998 RMK A01 T01100102  RH  095%=      5-min Rain = 0
KBI1 241146Z 17011KT 11/10 A2998 RMK A01 T01110102  RH  094%=      5-min Rain = 0
KBI1 241147Z 17011KT 11/10 A2998 RMK A01 T01110101  RH  093%=      5-min Rain = 0
KBI1 241148Z 17011KT 11/10 A2998 RMK A01 T01120100  RH  093%=      5-min Rain = 0
KBI1 241149Z 17011KT 11/10 A2998 RMK A01 T01120101  RH  093%=      5-min Rain = 0
KBI1 241150Z 17010KT 11/10 A2998 RMK A01 T01110101  RH  093%=      5-min Rain = 0
KBI1 241151Z 17011KT 11/10 A2998 RMK A01 T01120101  RH  093%=      5-min Rain = 0
KBI1 241152Z 17010KT 11/10 A2998 RMK A01 T01120102  RH  093%=      5-min Rain = 0
KBI1 241153Z 17010KT 11/10 A2998 RMK A01 T01120102  RH  093%=      5-min Rain = 0
KBI1 241154Z 17009KT 11/10 A2998 RMK A01 T01120101  RH  093%=      5-min Rain = 0
KBI1 241155Z 17010KT 11/10 A2998 RMK A01 T01130101  RH  093%=      5-min Rain = 0
KBI1 241156Z 17008KT 11/10 A2998 RMK A01 T01130102  RH  093%=      5-min Rain = 0
KBI1 241157Z 17009KT 11/10 A2998 RMK A01 T01130101  RH  093%=      5-min Rain = 0
KBI1 241158Z 18010KT 11/10 A2998 RMK A01 T01130102  RH  093%=      5-min Rain = 0
KBI1 241159Z 17009KT 11/10 A2999 RMK A01 T01140104  RH  093%=      5-min Rain = 0
KBI1 241200Z 18008KT 11/10 A2999 RMK A01 T01140103  RH  093%=      5-min Rain = 0
KBI1 241201Z 18007KT 11/10 A2999 RMK A01 T01140102  RH  092%=      5-min Rain = 0
KBI1 241202Z 18008KT 11/10 A2999 RMK A01 T01140102  RH  092%=      5-min Rain = 0
KBI1 241203Z 18008KT 11/10 A2999 RMK A01 T01140103  RH  093%=      5-min Rain = 0
KBI1 241204Z 18007KT 11/10 A2999 RMK A01 T01140103  RH  093%=      5-min Rain = 0
KBI1 241205Z 18007KT 12/10 A2999 RMK A01 T01150104  RH  093%=      5-min Rain = 0
KBI1 241206Z 19006KT 12/10 A2999 RMK A01 T01150103  RH  093%=      5-min Rain = 0
KBI1 241207Z 18005KT 12/10 A30 RMK A01 T01150102  RH  092%=      5-min Rain = 0
KBI1 241208Z 20005KT 12/10 A30 RMK A01 T01150102  RH  092%=      5-min Rain = 0
KBI1 241209Z 21004KT 11/10 A30 RMK A01 T01140101  RH  092%=      5-min Rain = 0
KBI1 241210Z 24002KT 11/10 A30 RMK A01 T01140102  RH  092%=      5-min Rain = 0
KBI1 241211Z 27003KT 11/10 A30 RMK A01 T01140102  RH  092%=      5-min Rain = 0
KBI1 241212Z 28003KT 11/10 A30 RMK A01 T01130100  RH  092%=      5-min Rain = 0
KBI1 241213Z 30003KT 11/10 A30 RMK A01 T01120099  RH  092%=      5-min Rain = 0
KBI1 241214Z 31001KT 11/10 A30 RMK A01 T01100096  RH  091%=      5-min Rain = 0
KBI1 241215Z 26001KT 11/09 A30 RMK A01 T01080094  RH  091%=      5-min Rain = 0
KBI1 241216Z 20002KT 11/10 A30 RMK A01 T01070096  RH  092%=      5-min Rain = 0
KBI1 241217Z 21002KT 11/10 A30 RMK A01 T01070097  RH  093%=      5-min Rain = 0
KBI1 241218Z 22003KT 11/10 A30 RMK A01 T01070098  RH  094%=      5-min Rain = 0
KBI1 241219Z 21003KT 11/10 A30 RMK A01 T01070099  RH  095%=      5-min Rain = 0
KBI1 241220Z 21004KT 11/10 A30 RMK A01 T01070100  RH  096%=      5-min Rain = 0
KBI1 241221Z 21004KT 11/10 A30 RMK A01 T01070101  RH  096%=      5-min Rain = 0
KBI1 241222Z 21003KT 11/10 A30 RMK A01 T01080103  RH  097%=      5-min Rain = 0
KBI1 241223Z 22004KT 11/10 A30 RMK A01 T01090104  RH  097%=      5-min Rain = 0
KBI1 241224Z 21004KT 11/10 A30 RMK A01 T01090103  RH  096%=      5-min Rain = 0
KBI1 241225Z 21004KT 11/10 A30 RMK A01 T01090102  RH  096%=      5-min Rain = 0
KBI1 241226Z 20004KT 11/10 A30 RMK A01 T01090103  RH  096%=      5-min Rain = 0
KBI1 241227Z 21003KT 11/10 A30 RMK A01 T01090102  RH  095%=      5-min Rain = 0
KBI1 241228Z 21003KT 11/10 A30 RMK A01 T01080100  RH  095%=      5-min Rain = 0
KBI1 241229Z 21003KT 11/10 A30 RMK A01 T01080100  RH  095%=      5-min Rain = 0
KBI1 241230Z 21003KT 11/10 A3001 RMK A01 T01070098  RH  094%=      5-min Rain = 0
KBI1 241231Z 20003KT 11/10 A3001 RMK A01 T01050097  RH  095%=      5-min Rain = 0
KBI1 241232Z 19004KT 11/10 A3001 RMK A01 T01050099  RH  096%=      5-min Rain = 0
KBI1 241233Z 19005KT 11/10 A3001 RMK A01 T01050100  RH  097%=      5-min Rain = 0
KBI1 241234Z 18005KT 11/10 A3001 RMK A01 T01050101  RH  097%=      5-min Rain = 0
KBI1 241235Z 18005KT 10/10 A3001 RMK A01 T01040099  RH  096%=      5-min Rain = 0
KBI1 241236Z 18005KT 10/10 A3001 RMK A01 T01040098  RH  096%=      5-min Rain = 0
KBI1 241237Z 18005KT 10/10 A3001 RMK A01 T01030098  RH  097%=      5-min Rain = 0
KBI1 241238Z 18005KT 10/10 A3001 RMK A01 T01020098  RH  097%=      5-min Rain = 0
KBI1 241239Z 19004KT 10/10 A3001 RMK A01 T01020097  RH  097%=      5-min Rain = 0
KBI1 241240Z 19003KT 10/10 A3001 RMK A01 T01020097  RH  097%=      5-min Rain = 0
KBI1 241241Z 18003KT 10/10 A3001 RMK A01 T01010097  RH  097%=      5-min Rain = 0
KBI1 241242Z 18003KT 10/10 A3001 RMK A01 T01010098  RH  098%=      5-min Rain = 0
KBI1 241243Z 19001KT 10/10 A3002 RMK A01 T01010098  RH  098%=      5-min Rain = 0
KBI1 241244Z 34003KT 10/10 A3003 RMK A01 T01010097  RH  098%=      5-min Rain = 0
KBI1 241245Z 34006KT 10/10 A3003 RMK A01 T00990095  RH  097%=      5-min Rain = 0
KBI1 241246Z 33005KT 10/10 A3003 RMK A01 T00980096  RH  099%=      5-min Rain = 0
KBI1 241247Z 31003KT 10/10 A3003 RMK A01 T00990098  RH  099%=      5-min Rain = 0
KBI1 241248Z 33002KT 10/10 A3003 RMK A01 T00990098  RH  099%=      5-min Rain = 0
KBI1 241249Z 34002KT 10/09 A3002 RMK A01 T00980094  RH  098%=      5-min Rain = 0
KBI1 241250Z 35000KT 10/09 A3002 RMK A01 T00950091  RH  097%=      5-min Rain = 0
KBI1 241251Z 19000KT 09/09 A3002 RMK A01 T00940089  RH  097%=      5-min Rain = 0
KBI1 241252Z 33007KT 09/09 A3003 RMK A01 T00930090  RH  098%=      5-min Rain = 0
KBI1 241253Z 34014KT 09/08 A3004 RMK A01 T00890081  RH  095%=      5-min Rain = 0
KBI1 241254Z 34014KT 09/08 A3005 RMK A01 T00850080  RH  097%=      5-min Rain = 0
KBI1 241255Z 34014KT 08/08 A3006 RMK A01 T00830081  RH  098%=      5-min Rain = 0
KBI1 241256Z 34012KT 08/08 A3006 RMK A01 T00830083  RH  100%=      5-min Rain = 0
KBI1 241257Z 33009KT 08/08 A3005 RMK A01 T00840084  RH  100%=      5-min Rain = 0
KBI1 241258Z 33009KT 08/08 A3005 RMK A01 T00840084  RH  100%=      5-min Rain = 0
KBI1 241259Z 33007KT 09/09 A3005 RMK A01 T00850085  RH  100%=      5-min Rain = 0
KBI1 241300Z 33007KT 09/09 A3005 RMK A01 T00850085  RH  100%=      5-min Rain = 0
KBI1 241301Z 33007KT 09/09 A3005 RMK A01 T00870087  RH  100%=      5-min Rain = 0
KBI1 241302Z 32008KT 09/09 A3005 RMK A01 T00890089  RH  100%=      5-min Rain = 0
KBI1 241303Z 32008KT 09/09 A3005 RMK A01 T00910091  RH  100%=      5-min Rain = 0
KBI1 241304Z 32007KT 09/09 A3005 RMK A01 T00920092  RH  100%=      5-min Rain = 0
KBI1 241305Z 32006KT 09/09 A3005 RMK A01 T00930093  RH  100%=      5-min Rain = 0
KBI1 241306Z 33009KT 09/09 A3005 RMK A01 T00940094  RH  100%=      5-min Rain = 0
KBI1 241307Z 34008KT 09/09 A3005 RMK A01 T00940093  RH  099%=      5-min Rain = 0
KBI1 241308Z 34006KT 09/09 A3005 RMK A01 T00940092  RH  099%=      5-min Rain = 0
KBI1 241309Z 34008KT 09/09 A3005 RMK A01 T00940092  RH  099%=      5-min Rain = 0
KBI1 241310Z 34008KT 09/09 A3006 RMK A01 T00940092  RH  099%=      5-min Rain = 0
KBI1 241311Z 34008KT 09/09 A3006 RMK A01 T00940092  RH  099%=      5-min Rain = 0
KBI1 241312Z 34007KT 09/09 A3005 RMK A01 T00930092  RH  099%=      5-min Rain = 0
KBI1 241313Z 34007KT 09/09 A3005 RMK A01 T00930091  RH  099%=      5-min Rain = 0
KBI1 241314Z 33005KT 09/09 A3005 RMK A01 T00940091  RH  098%=      5-min Rain = 0
KBI1 241315Z 33003KT 09/09 A3005 RMK A01 T00940091  RH  098%=      5-min Rain = 0
KBI1 241316Z 29001KT 09/09 A3005 RMK A01 T00940090  RH  098%=      5-min Rain = 0
KBI1 241317Z 27002KT 09/09 A3004 RMK A01 T00930090  RH  098%=      5-min Rain = 0
KBI1 241318Z 29002KT 09/09 A3004 RMK A01 T00930090  RH  098%=      5-min Rain = 0
KBI1 241319Z 30002KT 09/09 A3005 RMK A01 T00930089  RH  097%=      5-min Rain = 0
KBI1 241320Z 31002KT 09/09 A3005 RMK A01 T00920088  RH  097%=      5-min Rain = 0
KBI1 241321Z 31002KT 09/09 A3005 RMK A01 T00920087  RH  097%=      5-min Rain = 0
KBI1 241322Z 29002KT 09/09 A3004 RMK A01 T00910086  RH  097%=      5-min Rain = 0
KBI1 241323Z 25002KT 09/09 A3004 RMK A01 T00900086  RH  097%=      5-min Rain = 0
KBI1 241324Z 25002KT 09/09 A3004 RMK A01 T00900087  RH  098%=      5-min Rain = 0
KBI1 241325Z 27002KT 09/09 A3004 RMK A01 T00900088  RH  098%=      5-min Rain = 0
KBI1 241326Z 29002KT 09/09 A3004 RMK A01 T00900088  RH  098%=      5-min Rain = 0
KBI1 241327Z 27002KT 09/09 A3004 RMK A01 T00900088  RH  099%=      5-min Rain = 0
KBI1 241328Z 26002KT 09/09 A3004 RMK A01 T00900088  RH  099%=      5-min Rain = 0
KBI1 241329Z 28001KT 09/09 A3004 RMK A01 T00890087  RH  099%=      5-min Rain = 0
KBI1 241330Z 31002KT 09/09 A3005 RMK A01 T00890087  RH  099%=      5-min Rain = 0
KBI1 241331Z 33001KT 09/09 A3005 RMK A01 T00890086  RH  098%=      5-min Rain = 0
KBI1 241332Z 33001KT 09/09 A3005 RMK A01 T00890087  RH  099%=      5-min Rain = 0
KBI1 241333Z 34001KT 09/09 A3005 RMK A01 T00890088  RH  099%=      5-min Rain = 0
KBI1 241334Z 34002KT 09/09 A3005 RMK A01 T00890088  RH  099%=      5-min Rain = 0
KBI1 241335Z 34004KT 09/09 A3006 RMK A01 T00890088  RH  099%=      5-min Rain = 0
KBI1 241336Z 33004KT 09/09 A3006 RMK A01 T00890088  RH  099%=      5-min Rain = 0
KBI1 241337Z 34005KT 09/09 A3006 RMK A01 T00890087  RH  099%=      5-min Rain = 0
KBI1 241338Z 35006KT 09/09 A3006 RMK A01 T00880086  RH  098%=      5-min Rain = 0
KBI1 241339Z 35006KT 09/09 A3007 RMK A01 T00880085  RH  098%=      5-min Rain = 0
KBI1 241340Z 35006KT 09/08 A3007 RMK A01 T00880084  RH  098%=      5-min Rain = 0
KBI1 241341Z 35006KT 09/08 A3007 RMK A01 T00880084  RH  098%=      5-min Rain = 0
KBI1 241342Z 36005KT 09/08 A3006 RMK A01 T00870082  RH  097%=      5-min Rain = 0
KBI1 241343Z 35005KT 09/08 A3006 RMK A01 T00850080  RH  096%=      5-min Rain = 0
KBI1 241344Z 34004KT 08/08 A3006 RMK A01 T00840079  RH  097%=      5-min Rain = 0
KBI1 241345Z 33003KT 08/08 A3006 RMK A01 T00840080  RH  097%=      5-min Rain = 0
KBI1 241346Z 32002KT 08/08 A3006 RMK A01 T00840080  RH  098%=      5-min Rain = 0
KBI1 241347Z 31001KT 09/08 A3006 RMK A01 T00850081  RH  098%=      5-min Rain = 0
KBI1 241348Z 29001KT 09/08 A3006 RMK A01 T00850081  RH  097%=      5-min Rain = 0
KBI1 241349Z 30002KT 09/08 A3006 RMK A01 T00850080  RH  097%=      5-min Rain = 0
KBI1 241350Z 31003KT 08/08 A3006 RMK A01 T00840080  RH  097%=      5-min Rain = 0
KBI1 241351Z 31004KT 08/08 A3006 RMK A01 T00840080  RH  097%=      5-min Rain = 0
KBI1 241352Z 31003KT 08/08 A3006 RMK A01 T00840079  RH  097%=      5-min Rain = 0
KBI1 241353Z 31003KT 08/08 A3006 RMK A01 T00830078  RH  097%=      5-min Rain = 0
KBI1 241354Z 32003KT 08/08 A3006 RMK A01 T00830078  RH  097%=      5-min Rain = 0
KBI1 241355Z 33004KT 08/08 A3007 RMK A01 T00830078  RH  097%=      5-min Rain = 0
KBI1 241356Z 32005KT 08/08 A3007 RMK A01 T00830080  RH  098%=      5-min Rain = 0
KBI1 241357Z 31004KT 08/08 A3007 RMK A01 T00830080  RH  098%=      5-min Rain = 0
KBI1 241358Z 31005KT 08/08 A3007 RMK A01 T00840081  RH  098%=      5-min Rain = 0
KBI1 241359Z 32005KT 09/08 A3007 RMK A01 T00850082  RH  098%=      5-min Rain = 0
KBI1 241400Z 33006KT 09/08 A3007 RMK A01 T00850081  RH  098%=      5-min Rain = 0
KBI1 241401Z 33008KT 09/08 A3007 RMK A01 T00850081  RH  098%=      5-min Rain = 0
KBI1 241402Z 33008KT 09/08 A3007 RMK A01 T00860082  RH  097%=      5-min Rain = 0
KBI1 241403Z 33008KT 09/08 A3007 RMK A01 T00880081  RH  095%=      5-min Rain = 0
KBI1 241404Z 33008KT 09/08 A3007 RMK A01 T00880079  RH  093%=      5-min Rain = 0
KBI1 241405Z 33007KT 09/08 A3008 RMK A01 T00900076  RH  091%=      5-min Rain = 0
KBI1 241406Z 33008KT 09/07 A3008 RMK A01 T00900073  RH  089%=      5-min Rain = 0
KBI1 241407Z 33009KT 09/07 A3008 RMK A01 T00910071  RH  087%=      5-min Rain = 0
KBI1 241408Z 33008KT 09/07 A3008 RMK A01 T00910069  RH  086%=      5-min Rain = 0
KBI1 241409Z 33008KT 09/07 A3008 RMK A01 T00920068  RH  085%=      5-min Rain = 0
KBI1 241410Z 33008KT 09/07 A3008 RMK A01 T00920066  RH  084%=      5-min Rain = 0
KBI1 241411Z 33009KT 09/07 A3009 RMK A01 T00920066  RH  083%=      5-min Rain = 0
KBI1 241412Z 33008KT 09/06 A3008 RMK A01 T00920064  RH  083%=      5-min Rain = 0
KBI1 241413Z 32007KT 09/06 A3008 RMK A01 T00930063  RH  081%=      5-min Rain = 0
KBI1 241414Z 33006KT 09/06 A3008 RMK A01 T00930062  RH  081%=      5-min Rain = 0
KBI1 241415Z 33008KT 09/06 A3008 RMK A01 T00940058  RH  078%=      5-min Rain = 0
KBI1 241416Z 34010KT 09/05 A3009 RMK A01 T00940051  RH  075%=      5-min Rain = 0
KBI1 241417Z 34009KT 09/05 A3009 RMK A01 T00940050  RH  074%=      5-min Rain = 0
KBI1 241418Z 34008KT 09/05 A3009 RMK A01 T00940052  RH  075%=      5-min Rain = 0
KBI1 241419Z 34008KT 09/05 A3009 RMK A01 T00940051  RH  074%=      5-min Rain = 0
KBI1 241420Z 34009KT 09/05 A3009 RMK A01 T00940049  RH  073%=      5-min Rain = 0
KBI1 241421Z 34008KT 09/05 A3009 RMK A01 T00940047  RH  073%=      5-min Rain = 0
KBI1 241422Z 34009KT 09/05 A3009 RMK A01 T00930047  RH  073%=      5-min Rain = 0
KBI1 241423Z 34009KT 09/05 A3009 RMK A01 T00930046  RH  072%=      5-min Rain = 0
KBI1 241424Z 34009KT 09/04 A3009 RMK A01 T00930044  RH  072%=      5-min Rain = 0
KBI1 241425Z 34008KT 09/05 A3009 RMK A01 T00930045  RH  072%=      5-min Rain = 0
KBI1 241426Z 34009KT 09/04 A3009 RMK A01 T00930041  RH  070%=      5-min Rain = 0
KBI1 241427Z 34009KT 09/04 A3009 RMK A01 T00930037  RH  068%=      5-min Rain = 0
KBI1 241428Z 35010KT 09/04 A3009 RMK A01 T00930037  RH  068%=      5-min Rain = 0
KBI1 241429Z 34009KT 09/04 A3009 RMK A01 T00930035  RH  067%=      5-min Rain = 0
KBI1 241430Z 34009KT 09/04 A3009 RMK A01 T00940037  RH  067%=      5-min Rain = 0
KBI1 241431Z 35010KT 09/04 A3009 RMK A01 T00940035  RH  066%=      5-min Rain = 0
KBI1 241432Z 35010KT 10/03 A3009 RMK A01 T00950030  RH  064%=      5-min Rain = 0
KBI1 241433Z 36008KT 09/03 A3009 RMK A01 T00940030  RH  064%=      5-min Rain = 0
KBI1 241434Z 36010KT 10/03 A3009 RMK A01 T00950030  RH  064%=      5-min Rain = 0
KBI1 241435Z 35009KT 10/03 A301 RMK A01 T00950027  RH  063%=      5-min Rain = 0
KBI1 241436Z 35009KT 10/03 A301 RMK A01 T00950025  RH  062%=      5-min Rain = 0
KBI1 241437Z 36009KT 10/03 A301 RMK A01 T00950025  RH  062%=      5-min Rain = 0
KBI1 241438Z 00010KT 10/02 A301 RMK A01 T00950023  RH  061%=      5-min Rain = 0
KBI1 241439Z 00012KT 10/02 A301 RMK A01 T00950022  RH  060%=      5-min Rain = 0
KBI1 241440Z 36010KT 10/02 A301 RMK A01 T00950017  RH  058%=      5-min Rain = 0
KBI1 241441Z 36011KT 10/02 A301 RMK A01 T00950015  RH  057%=      5-min Rain = 0
KBI1 241442Z 35009KT 10/01 A301 RMK A01 T00960013  RH  056%=      5-min Rain = 0
KBI1 241443Z 35012KT 10/01 A301 RMK A01 T00960009  RH  055%=      5-min Rain = 0
KBI1 241444Z 35011KT 10/00 A301 RMK A01 T00960003  RH  052%=      5-min Rain = 0
KBI1 241445Z 00010KT 10/01 A301 RMK A01 T00960010  RH  055%=      5-min Rain = 0
KBI1 241446Z 01013KT 10/01 A301 RMK A01 T00960008  RH  054%=      5-min Rain = 0
KBI1 241447Z 01011KT 10/01 A301 RMK A01 T00960007  RH  054%=      5-min Rain = 0
KBI1 241448Z 00010KT 10/01 A301 RMK A01 T00970007  RH  053%=      5-min Rain = 0
KBI1 241449Z 36010KT 10/01 A301 RMK A01 T00970010  RH  055%=      5-min Rain = 0
KBI1 241450Z 36012KT 10/01 A301 RMK A01 T00970007  RH  053%=      5-min Rain = 0
KBI1 241451Z 01011KT 10/01 A301 RMK A01 T00970007  RH  053%=      5-min Rain = 0
KBI1 241452Z 01011KT 10/01 A3011 RMK A01 T00980008  RH  053%=      5-min Rain = 0
KBI1 241453Z 00010KT 10/01 A3011 RMK A01 T00990009  RH  054%=      5-min Rain = 0
KBI1 241454Z 36010KT 10/01 A3011 RMK A01 T00990011  RH  054%=      5-min Rain = 0
KBI1 241455Z 01009KT 10/01 A3011 RMK A01 T01000009  RH  053%=      5-min Rain = 0
KBI1 241456Z 36010KT 10/01 A3011 RMK A01 T01000011  RH  054%=      5-min Rain = 0
KBI1 241457Z 36011KT 10/01 A3011 RMK A01 T01010009  RH  053%=      5-min Rain = 0
KBI1 241458Z 00011KT 10/01 A3011 RMK A01 T01010011  RH  054%=      5-min Rain = 0
KBI1 241459Z 01013KT 10/01 A3011 RMK A01 T01010005  RH  051%=      5-min Rain = 0
KBI1 241500Z 01013KT 10/00 A3012 RMK A01 T01010002  RH  050%=      5-min Rain = 0
KBI1 241501Z 00012KT 10/00 A3012 RMK A01 T01000002  RH  051%=      5-min Rain = 0
KBI1 241502Z 00013KT 10/00 A3012 RMK A01 T01000003  RH  051%=      5-min Rain = 0
KBI1 241503Z 01011KT 10/00 A3012 RMK A01 T01000001  RH  050%=      5-min Rain = 0
KBI1 241504Z 01008KT 10/01 A3012 RMK A01 T01010006  RH  052%=      5-min Rain = 0
KBI1 241505Z 00010KT 10/00 A3012 RMK A01 T01020004  RH  051%=      5-min Rain = 0
KBI1 241506Z 00009KT 10/01 A3012 RMK A01 T01030008  RH  052%=      5-min Rain = 0
KBI1 241507Z 00010KT 10/01 A3012 RMK A01 T01040007  RH  051%=      5-min Rain = 0
KBI1 241508Z 01012KT 10/00 A3012 RMK A01 T01040004  RH  050%=      5-min Rain = 0
KBI1 241509Z 01011KT 10/00 A3012 RMK A01 T01040004  RH  050%=      5-min Rain = 0
KBI1 241510Z 01012KT 10/01 A3012 RMK A01 T01030005  RH  050%=      5-min Rain = 0
KBI1 241511Z 01012KT 10/00 A3012 RMK A01 T01030002  RH  049%=      5-min Rain = 0
KBI1 241512Z 01012KT 10/00 A3012 RMK A01 T01030002  RH  049%=      5-min Rain = 0
KBI1 241513Z 01013KT 10/00 A3012 RMK A01 T01040004  RH  050%=      5-min Rain = 0
KBI1 241514Z 01014KT 11/00 A3012 RMK A01 T01050001  RH  049%=      5-min Rain = 0
KBI1 241515Z 01012KT 11/00 A3012 RMK A01 T01050001  RH  048%=      5-min Rain = 0
KBI1 241516Z 02012KT 11/00 A3012 RMK A01 T01060002  RH  049%=      5-min Rain = 0
KBI1 241517Z 01010KT 11/00 A3012 RMK A01 T01060002  RH  048%=      5-min Rain = 0
KBI1 241518Z 01012KT 11/01 A3012 RMK A01 T01080005  RH  049%=      5-min Rain = 0
KBI1 241519Z 01012KT 11/00 A3012 RMK A01 T01090004  RH  049%=      5-min Rain = 0
KBI1 241520Z 01014KT 11/00 A3012 RMK A01 T01090001  RH  047%=      5-min Rain = 0
KBI1 241521Z 01013KT 11/00 A3012 RMK A01 T01090003  RH  048%=      5-min Rain = 0
KBI1 241522Z 01013KT 11/M00 A3012 RMK A01 T01101001  RH  046%=      5-min Rain = 0
KBI1 241523Z 01010KT 11/00 A3012 RMK A01 T01100003  RH  048%=      5-min Rain = 0
KBI1 241524Z 01009KT 11/01 A3012 RMK A01 T01120005  RH  048%=      5-min Rain = 0
KBI1 241525Z 01012G17KT 12/01 A3012 RMK A01 T01150008  RH  048%=      5-min Rain = 0
KBI1 241526Z 01013KT 12/00 A3012 RMK A01 T01160002  RH  045%=      5-min Rain = 0
KBI1 241527Z 01010KT 12/01 A3012 RMK A01 T01160006  RH  047%=      5-min Rain = 0
KBI1 241528Z 01011KT 12/00 A3012 RMK A01 T01170003  RH  045%=      5-min Rain = 0
KBI1 241529Z 00014KT 12/M00 A3012 RMK A01 T01171001  RH  044%=      5-min Rain = 0
KBI1 241530Z 01014KT 12/M00 A3012 RMK A01 T01171002  RH  044%=      5-min Rain = 0
KBI1 241531Z 01013KT 12/M00 A3012 RMK A01 T01161002  RH  044%=      5-min Rain = 0
KBI1 241532Z 01013KT 12/M00 A3012 RMK A01 T01161002  RH  044%=      5-min Rain = 0
KBI1 241533Z 01013KT 12/M00 A3012 RMK A01 T01171001  RH  044%=      5-min Rain = 0
KBI1 241534Z 01013KT 12/00 A3012 RMK A01 T01180000  RH  044%=      5-min Rain = 0
KBI1 241535Z 00012KT 12/M00 A3012 RMK A01 T01181002  RH  044%=      5-min Rain = 0
KBI1 241536Z 01012KT 12/00 A3012 RMK A01 T01200003  RH  045%=      5-min Rain = 0
KBI1 241537Z 01011KT 12/00 A3012 RMK A01 T01210002  RH  044%=      5-min Rain = 0
KBI1 241538Z 01011KT 12/00 A3012 RMK A01 T01220003  RH  044%=      5-min Rain = 0
KBI1 241539Z 02012KT 12/00 A3012 RMK A01 T01230001  RH  043%=      5-min Rain = 0
KBI1 241540Z 01015KT 12/M00 A3012 RMK A01 T01241004  RH  041%=      5-min Rain = 0
KBI1 241541Z 02014KT 12/M01 A3012 RMK A01 T01221006  RH  041%=      5-min Rain = 0
KBI1 241542Z 01013KT 12/M00 A3012 RMK A01 T01221004  RH  042%=      5-min Rain = 0
KBI1 241543Z 00014KT 12/M00 A3012 RMK A01 T01221002  RH  042%=      5-min Rain = 0
KBI1 241544Z 01016KT 12/M00 A3012 RMK A01 T01231001  RH  042%=      5-min Rain = 0
KBI1 241545Z 01015KT 12/M00 A3012 RMK A01 T01231004  RH  042%=      5-min Rain = 0
KBI1 241546Z 01014KT 12/M01 A3012 RMK A01 T01231005  RH  041%=      5-min Rain = 0
KBI1 241547Z 01015KT 12/M01 A3013 RMK A01 T01231006  RH  041%=      5-min Rain = 0
KBI1 241548Z 01012G17KT 12/M01 A3013 RMK A01 T01231006  RH  041%=      5-min Rain = 0
KBI1 241549Z 02014KT 13/M01 A3012 RMK A01 T01251005  RH  041%=      5-min Rain = 0
KBI1 241550Z 01014KT 13/M01 A3012 RMK A01 T01261006  RH  040%=      5-min Rain = 0
KBI1 241551Z 01009KT 13/M01 A3012 RMK A01 T01261005  RH  041%=      5-min Rain = 0
KBI1 241552Z 02014KT 13/M00 A3013 RMK A01 T01281003  RH  041%=      5-min Rain = 0
KBI1 241553Z 02013KT 13/M01 A3013 RMK A01 T01281010  RH  038%=      5-min Rain = 0
KBI1 241554Z 01015KT 13/M01 A3013 RMK A01 T01271008  RH  039%=      5-min Rain = 0
KBI1 241555Z 02014KT 13/M01 A3012 RMK A01 T01271009  RH  039%=      5-min Rain = 0
KBI1 241556Z 02014KT 13/M01 A3013 RMK A01 T01271008  RH  039%=      5-min Rain = 0
KBI1 241557Z 02014KT 13/M01 A3013 RMK A01 T01271007  RH  039%=      5-min Rain = 0
KBI1 241558Z 02015KT 13/M01 A3013 RMK A01 T01281008  RH  039%=      5-min Rain = 0
KBI1 241559Z 01013KT 13/M01 A3012 RMK A01 T01281006  RH  040%=      5-min Rain = 0
KBI1 241600Z 02013G18KT 13/M01 A3013 RMK A01 T01291006  RH  039%=      5-min Rain = 0
KBI1 241601Z 02010KT 13/M00 A3012 RMK A01 T01311003  RH  040%=      5-min Rain = 0
KBI1 241602Z 03013KT 13/M01 A3012 RMK A01 T01341005  RH  038%=      5-min Rain = 0
KBI1 241603Z 03014KT 13/M01 A3012 RMK A01 T01321011  RH  037%=      5-min Rain = 0
KBI1 241604Z 03013KT 13/M01 A3012 RMK A01 T01301010  RH  038%=      5-min Rain = 0
KBI1 241605Z 03013KT 13/M01 A3012 RMK A01 T01301009  RH  038%=      5-min Rain = 0
KBI1 241606Z 03012KT 13/M01 A3012 RMK A01 T01301012  RH  037%=      5-min Rain = 0
KBI1 241607Z 03012KT 13/M01 A3013 RMK A01 T01311008  RH  038%=      5-min Rain = 0
KBI1 241608Z 02012KT 13/M01 A3013 RMK A01 T01311010  RH  038%=      5-min Rain = 0
KBI1 241609Z 01012KT 13/M01 A3013 RMK A01 T01311009  RH  038%=      5-min Rain = 0
KBI1 241610Z 03013KT 13/M01 A3013 RMK A01 T01331007  RH  038%=      5-min Rain = 0
KBI1 241611Z 02012KT 13/M01 A3013 RMK A01 T01331010  RH  037%=      5-min Rain = 0
KBI1 241612Z 02011KT 13/M01 A3013 RMK A01 T01321008  RH  038%=      5-min Rain = 0
KBI1 241613Z 01013KT 13/M01 A3013 RMK A01 T01341008  RH  038%=      5-min Rain = 0
KBI1 241614Z 00012KT 13/M01 A3013 RMK A01 T01321011  RH  037%=      5-min Rain = 0
KBI1 241615Z 01012KT 13/M01 A3013 RMK A01 T01331006  RH  038%=      5-min Rain = 0
KBI1 241616Z 00014KT 14/M01 A3013 RMK A01 T01351006  RH  038%=      5-min Rain = 0
KBI1 241617Z 01014KT 14/M01 A3013 RMK A01 T01351006  RH  038%=      5-min Rain = 0
KBI1 241618Z 01014KT 14/M01 A3013 RMK A01 T01351010  RH  037%=      5-min Rain = 0
KBI1 241619Z 01012KT 13/M01 A3013 RMK A01 T01331009  RH  037%=      5-min Rain = 0
KBI1 241620Z 02011KT 13/M01 A3013 RMK A01 T01331009  RH  037%=      5-min Rain = 0
KBI1 241621Z 01014KT 14/M01 A3013 RMK A01 T01351009  RH  037%=      5-min Rain = 0
KBI1 241622Z 01014KT 14/M01 A3013 RMK A01 T01351010  RH  037%=      5-min Rain = 0
KBI1 241623Z 02011KT 14/M01 A3012 RMK A01 T01351010  RH  037%=      5-min Rain = 0
KBI1 241624Z 03013KT 14/M01 A3012 RMK A01 T01361010  RH  036%=      5-min Rain = 0
KBI1 241625Z 01013KT 14/M01 A3012 RMK A01 T01361009  RH  037%=      5-min Rain = 0
KBI1 241626Z 01013KT 14/M01 A3012 RMK A01 T01381005  RH  037%=      5-min Rain = 0
KBI1 241627Z 01013KT 14/M01 A3012 RMK A01 T01391007  RH  036%=      5-min Rain = 0
KBI1 241628Z 02012KT 14/M01 A3013 RMK A01 T01371009  RH  036%=      5-min Rain = 0
KBI1 241629Z 02012KT 14/M01 A3013 RMK A01 T01371010  RH  036%=      5-min Rain = 0
KBI1 241630Z 02011KT 14/M01 A3013 RMK A01 T01371008  RH  037%=      5-min Rain = 0
KBI1 241631Z 02010KT 14/M01 A3013 RMK A01 T01381007  RH  037%=      5-min Rain = 0
KBI1 241632Z 01012KT 14/M01 A3013 RMK A01 T01401005  RH  037%=      5-min Rain = 0
KBI1 241633Z 01010KT 14/M01 A3013 RMK A01 T01401007  RH  036%=      5-min Rain = 0
KBI1 241634Z 36011KT 14/M01 A3013 RMK A01 T01401005  RH  037%=      5-min Rain = 0
KBI1 241635Z 00010KT 14/M01 A3013 RMK A01 T01411005  RH  037%=      5-min Rain = 0
KBI1 241636Z 00014KT 14/M01 A3013 RMK A01 T01431006  RH  036%=      5-min Rain = 0
KBI1 241637Z 01011KT 14/M01 A3013 RMK A01 T01431007  RH  036%=      5-min Rain = 0
KBI1 241638Z 01013KT 14/M01 A3013 RMK A01 T01431007  RH  036%=      5-min Rain = 0
KBI1 241639Z 02014KT 14/M01 A3013 RMK A01 T01421011  RH  035%=      5-min Rain = 0
KBI1 241640Z 02014KT 14/M01 A3013 RMK A01 T01391012  RH  035%=      5-min Rain = 0
KBI1 241641Z 02012KT 14/M01 A3013 RMK A01 T01391010  RH  036%=      5-min Rain = 0
KBI1 241642Z 01012KT 14/M01 A3013 RMK A01 T01411008  RH  036%=      5-min Rain = 0
KBI1 241643Z 01014KT 14/M01 A3013 RMK A01 T01421011  RH  035%=      5-min Rain = 0
KBI1 241644Z 00012KT 14/M01 A3013 RMK A01 T01411011  RH  035%=      5-min Rain = 0
KBI1 241645Z 01012KT 14/M01 A3013 RMK A01 T01411011  RH  035%=      5-min Rain = 0
KBI1 241646Z 36011KT 14/M01 A3013 RMK A01 T01401011  RH  035%=      5-min Rain = 0
KBI1 241647Z 01012KT 14/M01 A3013 RMK A01 T01431010  RH  035%=      5-min Rain = 0
KBI1 241648Z 00013KT 14/M01 A3013 RMK A01 T01441011  RH  034%=      5-min Rain = 0
KBI1 241649Z 01011KT 14/M01 A3013 RMK A01 T01441012  RH  034%=      5-min Rain = 0
KBI1 241650Z 01009KT 14/M01 A3013 RMK A01 T01431011  RH  035%=      5-min Rain = 0
KBI1 241651Z 01012KT 14/M01 A3013 RMK A01 T01441009  RH  035%=      5-min Rain = 0
KBI1 241652Z 01010KT 15/M01 A3013 RMK A01 T01451011  RH  034%=      5-min Rain = 0
KBI1 241653Z 01011KT 15/M01 A3013 RMK A01 T01461007  RH  035%=      5-min Rain = 0
KBI1 241654Z 36011KT 15/M01 A3013 RMK A01 T01471009  RH  034%=      5-min Rain = 0
KBI1 241655Z 01008KT 15/M01 A3013 RMK A01 T01461010  RH  034%=      5-min Rain = 0
KBI1 241656Z 03009KT 15/M01 A3013 RMK A01 T01481005  RH  035%=      5-min Rain = 0
KBI1 241657Z 02010KT 15/M01 A3013 RMK A01 T01501009  RH  034%=      5-min Rain = 0
KBI1 241658Z 02009KT 15/M01 A3013 RMK A01 T01501008  RH  034%=      5-min Rain = 0
KBI1 241659Z 03013KT 15/M01 A3013 RMK A01 T01501011  RH  033%=      5-min Rain = 0
KBI1 241700Z 02011KT 15/M01 A3013 RMK A01 T01481012  RH  033%=      5-min Rain = 0
KBI1 241701Z 01010KT 15/M01 A3013 RMK A01 T01481010  RH  034%=      5-min Rain = 0
KBI1 241702Z 01011KT 15/M01 A3013 RMK A01 T01501007  RH  034%=      5-min Rain = 0
KBI1 241703Z 01010KT 15/M01 A3013 RMK A01 T01511009  RH  033%=      5-min Rain = 0
KBI1 241704Z 01007KT 15/M01 A3013 RMK A01 T01511008  RH  033%=      5-min Rain = 0
KBI1 241705Z 03009KT 15/M01 A3013 RMK A01 T01521005  RH  034%=      5-min Rain = 0
KBI1 241706Z 03012KT 15/M01 A3013 RMK A01 T01541011  RH  032%=      5-min Rain = 0
KBI1 241707Z 02010KT 15/M01 A3013 RMK A01 T01531012  RH  032%=      5-min Rain = 0
KBI1 241708Z 02009KT 15/M01 A3013 RMK A01 T01521010  RH  033%=      5-min Rain = 0
KBI1 241709Z 36010G15KT 15/M01 A3013 RMK A01 T01521008  RH  033%=      5-min Rain = 0
KBI1 241710Z 02010KT 15/M01 A3013 RMK A01 T01541007  RH  033%=      5-min Rain = 0
KBI1 241711Z 02010KT 16/M01 A3013 RMK A01 T01571006  RH  033%=      5-min Rain = 0
KBI1 241712Z 01008KT 16/M01 A3013 RMK A01 T01571008  RH  032%=      5-min Rain = 0
KBI1 241713Z 02010KT 16/M01 A3013 RMK A01 T01571007  RH  032%=      5-min Rain = 0
KBI1 241714Z 02010KT 16/M01 A3013 RMK A01 T01581007  RH  032%=      5-min Rain = 0
KBI1 241715Z 03010KT 16/M01 A3013 RMK A01 T01581012  RH  031%=      5-min Rain = 0
KBI1 241716Z 02010KT 16/M01 A3013 RMK A01 T01561011  RH  032%=      5-min Rain = 0
KBI1 241717Z 01009KT 16/M01 A3013 RMK A01 T01571012  RH  032%=      5-min Rain = 0
KBI1 241718Z 01008KT 16/M01 A3013 RMK A01 T01551011  RH  032%=      5-min Rain = 0
KBI1 241719Z 03011G17KT 16/M01 A3013 RMK A01 T01561007  RH  033%=      5-min Rain = 0
KBI1 241720Z 03013KT 16/M01 A3013 RMK A01 T01591012  RH  031%=      5-min Rain = 0
KBI1 241721Z 03010KT 16/M01 A3013 RMK A01 T01561014  RH  031%=      5-min Rain = 0
KBI1 241722Z 02009KT 16/M01 A3013 RMK A01 T01561013  RH  032%=      5-min Rain = 0
KBI1 241723Z 03007KT 16/M01 A3013 RMK A01 T01561012  RH  032%=      5-min Rain = 0
KBI1 241724Z 03008KT 16/M01 A3013 RMK A01 T01571010  RH  032%=      5-min Rain = 0
KBI1 241725Z 02007KT 16/M01 A3013 RMK A01 T01591010  RH  031%=      5-min Rain = 0
KBI1 241726Z 00010KT 16/M01 A3013 RMK A01 T01601009  RH  032%=      5-min Rain = 0
KBI1 241727Z 00010KT 16/M01 A3013 RMK A01 T01611011  RH  031%=      5-min Rain = 0
KBI1 241728Z 00009KT 16/M01 A3013 RMK A01 T01591013  RH  031%=      5-min Rain = 0
KBI1 241729Z 00009KT 16/M01 A3013 RMK A01 T01591009  RH  032%=      5-min Rain = 0
KBI1 241730Z 00009KT 16/M01 A3013 RMK A01 T01611009  RH  031%=      5-min Rain = 0
KBI1 241731Z 00011KT 16/M01 A3013 RMK A01 T01621009  RH  031%=      5-min Rain = 0
KBI1 241732Z 02009KT 16/M01 A3013 RMK A01 T01641009  RH  031%=      5-min Rain = 0
KBI1 241733Z 01011KT 16/M01 A3013 RMK A01 T01631011  RH  031%=      5-min Rain = 0
KBI1 241734Z 01011KT 16/M01 A3013 RMK A01 T01611011  RH  031%=      5-min Rain = 0
KBI1 241735Z 00009KT 16/M01 A3013 RMK A01 T01601010  RH  031%=      5-min Rain = 0
KBI1 241736Z 04009KT 16/M01 A3013 RMK A01 T01611008  RH  031%=      5-min Rain = 0
KBI1 241737Z 03011KT 16/M01 A3013 RMK A01 T01631011  RH  030%=      5-min Rain = 0
KBI1 241738Z 03009KT 16/M02 A3013 RMK A01 T01611015  RH  030%=      5-min Rain = 0
KBI1 241739Z 04007KT 16/M01 A3013 RMK A01 T01591013  RH  031%=      5-min Rain = 0
KBI1 241740Z 04010KT 16/M01 A3013 RMK A01 T01611010  RH  031%=      5-min Rain = 0
KBI1 241741Z 05010KT 16/M01 A3013 RMK A01 T01631010  RH  031%=      5-min Rain = 0
KBI1 241742Z 03008KT 16/M01 A3013 RMK A01 T01631011  RH  030%=      5-min Rain = 0
KBI1 241743Z 02010KT 16/M01 A3013 RMK A01 T01641011  RH  030%=      5-min Rain = 0
KBI1 241744Z 03010KT 16/M01 A3013 RMK A01 T01621012  RH  030%=      5-min Rain = 0
KBI1 241745Z 03010KT 16/M01 A3013 RMK A01 T01621012  RH  030%=      5-min Rain = 0
KBI1 241746Z 03011KT 16/M01 A3013 RMK A01 T01631012  RH  030%=      5-min Rain = 0
KBI1 241747Z 02009KT 16/M01 A3013 RMK A01 T01631011  RH  030%=      5-min Rain = 0
KBI1 241748Z 00008KT 16/M01 A3013 RMK A01 T01621012  RH  030%=      5-min Rain = 0
KBI1 241749Z 00011KT 16/M01 A3012 RMK A01 T01621011  RH  031%=      5-min Rain = 0
KBI1 241750Z 36011KT 16/M01 A3012 RMK A01 T01641011  RH  030%=      5-min Rain = 0
KBI1 241751Z 36010KT 17/M01 A3012 RMK A01 T01671009  RH  030%=      5-min Rain = 0
KBI1 241752Z 01010KT 17/M01 A3012 RMK A01 T01671010  RH  030%=      5-min Rain = 0
KBI1 241753Z 02009KT 17/M01 A3013 RMK A01 T01691008  RH  030%=      5-min Rain = 0
KBI1 241754Z 03007KT 17/M01 A3013 RMK A01 T01701010  RH  029%=      5-min Rain = 0
KBI1 241755Z 04007KT 17/M01 A3013 RMK A01 T01691010  RH  030%=      5-min Rain = 0
KBI1 241756Z 03010KT 17/M01 A3013 RMK A01 T01701009  RH  030%=      5-min Rain = 0
KBI1 241757Z 03010KT 17/M01 A3013 RMK A01 T01701010  RH  029%=      5-min Rain = 0
KBI1 241758Z 03006KT 17/M01 A3013 RMK A01 T01701011  RH  029%=      5-min Rain = 0
KBI1 241759Z 02006KT 17/M01 A3013 RMK A01 T01691011  RH  029%=      5-min Rain = 0
KBI1 241800Z 03005KT 17/M01 A3013 RMK A01 T01701008  RH  030%=      5-min Rain = 0
KBI1 241801Z 04008KT 17/M01 A3013 RMK A01 T01741005  RH  030%=      5-min Rain = 0
KBI1 241802Z 03009KT 18/M01 A3013 RMK A01 T01751010  RH  028%=      5-min Rain = 0
KBI1 241803Z 04009KT 17/M01 A3013 RMK A01 T01721013  RH  028%=      5-min Rain = 0
KBI1 241804Z 03008KT 17/M01 A3013 RMK A01 T01691010  RH  029%=      5-min Rain = 0
KBI1 241805Z 02009KT 17/M01 A3013 RMK A01 T01711008  RH  030%=      5-min Rain = 0
KBI1 241806Z 04010KT 17/M01 A3013 RMK A01 T01731008  RH  029%=      5-min Rain = 0
KBI1 241807Z 04009KT 17/M01 A3013 RMK A01 T01741010  RH  029%=      5-min Rain = 0
KBI1 241808Z 03008KT 17/M01 A3013 RMK A01 T01721013  RH  028%=      5-min Rain = 0
KBI1 241809Z 04008KT 17/M01 A3013 RMK A01 T01711008  RH  030%=      5-min Rain = 0
KBI1 241810Z 01008KT 18/M00 A3013 RMK A01 T01761004  RH  029%=      5-min Rain = 0
KBI1 241811Z 01010KT 18/M01 A3013 RMK A01 T01801005  RH  029%=      5-min Rain = 0
KBI1 241812Z 01007KT 18/M01 A3013 RMK A01 T01771011  RH  028%=      5-min Rain = 0
KBI1 241813Z 36006G11KT 17/M01 A3012 RMK A01 T01741010  RH  029%=      5-min Rain = 0
KBI1 241814Z 01009KT 17/M01 A3012 RMK A01 T01741008  RH  029%=      5-min Rain = 0
KBI1 241815Z 01009KT 18/M01 A3012 RMK A01 T01761007  RH  029%=      5-min Rain = 0
KBI1 241816Z 01009KT 18/M01 A3012 RMK A01 T01771008  RH  029%=      5-min Rain = 0
KBI1 241817Z 01009KT 17/M01 A3012 RMK A01 T01741011  RH  028%=      5-min Rain = 0
KBI1 241818Z 02010KT 17/M01 A3012 RMK A01 T01731011  RH  029%=      5-min Rain = 0
KBI1 241819Z 03008KT 17/M01 A3012 RMK A01 T01731012  RH  028%=      5-min Rain = 0
KBI1 241820Z 02010KT 17/M01 A3013 RMK A01 T01741013  RH  028%=      5-min Rain = 0
KBI1 241821Z 02006KT 17/M01 A3012 RMK A01 T01731011  RH  029%=      5-min Rain = 0
KBI1 241822Z 04007KT 17/M01 A3012 RMK A01 T01731011  RH  029%=      5-min Rain = 0
KBI1 241823Z 02009KT 17/M01 A3012 RMK A01 T01741008  RH  029%=      5-min Rain = 0
KBI1 241824Z 02008KT 18/M01 A3012 RMK A01 T01761010  RH  028%=      5-min Rain = 0
KBI1 241825Z 02006KT 18/M01 A3012 RMK A01 T01751010  RH  029%=      5-min Rain = 0
KBI1 241826Z 02008KT 18/M01 A3012 RMK A01 T01751010  RH  029%=      5-min Rain = 0
KBI1 241827Z 02010KT 18/M01 A3012 RMK A01 T01761008  RH  029%=      5-min Rain = 0
KBI1 241828Z 03008KT 18/M01 A3012 RMK A01 T01761008  RH  029%=      5-min Rain = 0
KBI1 241829Z 04008KT 18/M01 A3012 RMK A01 T01781009  RH  028%=      5-min Rain = 0
KBI1 241830Z 03008KT 18/M01 A3012 RMK A01 T01771009  RH  028%=      5-min Rain = 0
KBI1 241831Z 01007KT 18/M01 A3012 RMK A01 T01771007  RH  029%=      5-min Rain = 0
KBI1 241832Z 01009KT 18/M01 A3012 RMK A01 T01781006  RH  029%=      5-min Rain = 0
KBI1 241833Z 01010KT 18/M01 A3012 RMK A01 T01791005  RH  029%=      5-min Rain = 0
KBI1 241834Z 01009KT 18/M01 A3012 RMK A01 T01811006  RH  028%=      5-min Rain = 0
KBI1 241835Z 36009KT 18/M01 A3012 RMK A01 T01801005  RH  029%=      5-min Rain = 0
KBI1 241836Z 00010KT 18/M01 A3012 RMK A01 T01811006  RH  028%=      5-min Rain = 0
KBI1 241837Z 35009KT 18/M01 A3011 RMK A01 T01801008  RH  028%=      5-min Rain = 0
KBI1 241838Z 00008KT 18/M01 A3011 RMK A01 T01781008  RH  028%=      5-min Rain = 0
KBI1 241839Z 02006KT 18/M01 A3011 RMK A01 T01781005  RH  029%=      5-min Rain = 0
KBI1 241840Z 03008KT 18/M01 A3011 RMK A01 T01801005  RH  029%=      5-min Rain = 0
KBI1 241841Z 01009KT 18/M01 A3012 RMK A01 T01811006  RH  028%=      5-min Rain = 0
KBI1 241842Z 03007KT 18/M01 A3012 RMK A01 T01811005  RH  028%=      5-min Rain = 0
KBI1 241843Z 04007KT 18/M01 A3012 RMK A01 T01831005  RH  028%=      5-min Rain = 0
KBI1 241844Z 02006KT 18/M01 A3011 RMK A01 T01831006  RH  028%=      5-min Rain = 0
KBI1 241845Z 02008KT 18/M01 A3011 RMK A01 T01831005  RH  028%=      5-min Rain = 0
KBI1 241846Z 35008KT 19/M00 A3011 RMK A01 T01851004  RH  028%=      5-min Rain = 0
KBI1 241847Z 35005KT 19/M01 A3011 RMK A01 T01851008  RH  027%=      5-min Rain = 0
KBI1 241848Z 35009KT 19/M00 A3011 RMK A01 T01851002  RH  028%=      5-min Rain = 0
KBI1 241849Z 34010KT 19/M00 A3011 RMK A01 T01871004  RH  027%=      5-min Rain = 0
KBI1 241850Z 35009KT 19/M00 A3011 RMK A01 T01871004  RH  028%=      5-min Rain = 0
KBI1 241851Z 35009KT 19/M01 A3011 RMK A01 T01861006  RH  027%=      5-min Rain = 0
KBI1 241852Z 35009KT 19/M01 A3011 RMK A01 T01851006  RH  027%=      5-min Rain = 0
KBI1 241853Z 34007KT 19/M00 A3011 RMK A01 T01851004  RH  028%=      5-min Rain = 0
KBI1 241854Z 34008KT 19/M01 A3011 RMK A01 T01861007  RH  027%=      5-min Rain = 0
KBI1 241855Z 36009KT 19/M01 A3011 RMK A01 T01851007  RH  027%=      5-min Rain = 0
KBI1 241856Z 02008KT 18/M01 A3011 RMK A01 T01841005  RH  028%=      5-min Rain = 0
KBI1 241857Z 00010KT 19/M01 A3011 RMK A01 T01851006  RH  028%=      5-min Rain = 0
KBI1 241858Z 34008KT 19/M01 A3011 RMK A01 T01871005  RH  027%=      5-min Rain = 0
KBI1 241859Z 35007G12KT 19/M01 A3011 RMK A01 T01891006  RH  027%=      5-min Rain = 0
KBI1 241900Z 36007KT 19/M01 A3011 RMK A01 T01901007  RH  027%=      5-min Rain = 0
KBI1 241901Z 01010KT 19/M01 A3011 RMK A01 T01891005  RH  027%=      5-min Rain = 0
KBI1 241902Z 35009KT 19/M01 A3011 RMK A01 T01881007  RH  027%=      5-min Rain = 0
KBI1 241903Z 35011KT 19/M01 A301 RMK A01 T01871008  RH  027%=      5-min Rain = 0
KBI1 241904Z 35010KT 19/M01 A301 RMK A01 T01871007  RH  027%=      5-min Rain = 0
KBI1 241905Z 35007KT 19/M01 A301 RMK A01 T01871010  RH  026%=      5-min Rain = 0
KBI1 241906Z 01008KT 19/M01 A301 RMK A01 T01851010  RH  027%=      5-min Rain = 0
KBI1 241907Z 02005KT 18/M01 A301 RMK A01 T01841011  RH  027%=      5-min Rain = 0
KBI1 241908Z 01006KT 18/M01 A301 RMK A01 T01821011  RH  027%=      5-min Rain = 0
KBI1 241909Z 03009KT 18/M01 A301 RMK A01 T01831008  RH  028%=      5-min Rain = 0
KBI1 241910Z 04007KT 18/M01 A301 RMK A01 T01841005  RH  028%=      5-min Rain = 0
KBI1 241911Z 02008KT 19/M00 A301 RMK A01 T01881003  RH  028%=      5-min Rain = 0
KBI1 241912Z 02008KT 19/M01 A301 RMK A01 T01881007  RH  027%=      5-min Rain = 0
KBI1 241913Z 00010KT 19/M01 A301 RMK A01 T01871007  RH  027%=      5-min Rain = 0
KBI1 241914Z 35009KT 19/M01 A301 RMK A01 T01871008  RH  027%=      5-min Rain = 0
KBI1 241915Z 35007KT 19/M01 A301 RMK A01 T01861012  RH  026%=      5-min Rain = 0
KBI1 241916Z 01003KT 18/M01 A301 RMK A01 T01841013  RH  026%=      5-min Rain = 0
KBI1 241917Z 01007KT 18/M01 A301 RMK A01 T01831009  RH  027%=      5-min Rain = 0
KBI1 241918Z 03008KT 19/M01 A301 RMK A01 T01851008  RH  027%=      5-min Rain = 0
KBI1 241919Z 02007KT 19/M01 A301 RMK A01 T01861010  RH  026%=      5-min Rain = 0
KBI1 241920Z 01005KT 19/M01 A301 RMK A01 T01851011  RH  027%=      5-min Rain = 0
KBI1 241921Z 04008KT 18/M01 A301 RMK A01 T01841008  RH  027%=      5-min Rain = 0
KBI1 241922Z 04008KT 19/M01 A301 RMK A01 T01861006  RH  027%=      5-min Rain = 0
KBI1 241923Z 03008KT 19/M01 A301 RMK A01 T01891007  RH  027%=      5-min Rain = 0
KBI1 241924Z 03008KT 19/M01 A301 RMK A01 T01911007  RH  026%=      5-min Rain = 0
KBI1 241925Z 03008KT 19/M01 A301 RMK A01 T01911008  RH  026%=      5-min Rain = 0
KBI1 241926Z 05008KT 19/M01 A301 RMK A01 T01901008  RH  026%=      5-min Rain = 0
KBI1 241927Z 05007KT 19/M01 A301 RMK A01 T01901007  RH  026%=      5-min Rain = 0
KBI1 241928Z 04006KT 19/M01 A301 RMK A01 T01901008  RH  026%=      5-min Rain = 0
KBI1 241929Z 01006KT 19/M01 A301 RMK A01 T01891007  RH  027%=      5-min Rain = 0
KBI1 241930Z 01010KT 19/M01 A301 RMK A01 T01901005  RH  027%=      5-min Rain = 0
KBI1 241931Z 00008KT 19/M01 A3009 RMK A01 T01911008  RH  026%=      5-min Rain = 0
KBI1 241932Z 35007KT 19/M01 A3009 RMK A01 T01911009  RH  026%=      5-min Rain = 0
KBI1 241933Z 01009KT 19/M01 A3009 RMK A01 T01901008  RH  026%=      5-min Rain = 0
KBI1 241934Z 01008KT 19/M00 A3009 RMK A01 T01901002  RH  027%=      5-min Rain = 0
KBI1 241935Z 00007KT 19/M01 A3009 RMK A01 T01921005  RH  026%=      5-min Rain = 0
KBI1 241936Z 04006KT 19/M00 A3009 RMK A01 T01911004  RH  027%=      5-min Rain = 0
KBI1 241937Z 04005KT 19/M01 A3009 RMK A01 T01911007  RH  026%=      5-min Rain = 0
KBI1 241938Z 04006KT 19/M01 A3009 RMK A01 T01901005  RH  027%=      5-min Rain = 0
KBI1 241939Z 02007KT 19/M01 A3009 RMK A01 T01911005  RH  027%=      5-min Rain = 0
KBI1 241940Z 01004KT 19/M01 A3009 RMK A01 T01921005  RH  026%=      5-min Rain = 0
KBI1 241941Z 01007KT 19/M00 A3009 RMK A01 T01931004  RH  026%=      5-min Rain = 0
KBI1 241942Z 01006KT 19/M01 A3009 RMK A01 T01931006  RH  026%=      5-min Rain = 0
KBI1 241943Z 02006KT 19/M01 A3009 RMK A01 T01921007  RH  026%=      5-min Rain = 0
KBI1 241944Z 01005KT 19/M01 A3009 RMK A01 T01911008  RH  026%=      5-min Rain = 0
KBI1 241945Z 03004KT 19/M01 A3009 RMK A01 T01911008  RH  026%=      5-min Rain = 0
KBI1 241946Z 03009KT 19/M01 A3009 RMK A01 T01911006  RH  026%=      5-min Rain = 0
KBI1 241947Z 03010KT 19/M00 A3009 RMK A01 T01941004  RH  026%=      5-min Rain = 0
KBI1 241948Z 04009KT 20/M01 A3009 RMK A01 T01951005  RH  026%=      5-min Rain = 0
KBI1 241949Z 05007KT 20/M00 A3009 RMK A01 T01951004  RH  026%=      5-min Rain = 0
KBI1 241950Z 03007KT 20/M01 A3009 RMK A01 T01951006  RH  026%=      5-min Rain = 0
KBI1 241951Z 01003KT 19/M01 A3009 RMK A01 T01931008  RH  026%=      5-min Rain = 0
KBI1 241952Z 02005KT 19/M00 A3009 RMK A01 T01941003  RH  027%=      5-min Rain = 0
KBI1 241953Z 04007KT 20/M00 A3009 RMK A01 T01981001  RH  026%=      5-min Rain = 0
KBI1 241954Z 04009KT 20/M00 A3009 RMK A01 T02001004  RH  025%=      5-min Rain = 0
KBI1 241955Z 04008KT 20/M01 A3009 RMK A01 T02001005  RH  025%=      5-min Rain = 0
KBI1 241956Z 05006KT 20/M00 A3009 RMK A01 T01991003  RH  026%=      5-min Rain = 0
KBI1 241957Z 06007KT 20/M01 A3009 RMK A01 T02001005  RH  025%=      5-min Rain = 0
KBI1 241958Z 07005KT 20/M01 A3009 RMK A01 T01981007  RH  025%=      5-min Rain = 0
KBI1 241959Z 05004KT 20/M00 A3008 RMK A01 T01961002  RH  026%=      5-min Rain = 0
KBI1 242000Z 03005KT 20/M01 A3008 RMK A01 T01971005  RH  026%=      5-min Rain = 0
KBI1 242001Z 02003KT 20/M01 A3008 RMK A01 T01961010  RH  025%=      5-min Rain = 0
KBI1 242002Z 04002KT 19/M01 A3008 RMK A01 T01941006  RH  026%=      5-min Rain = 0
KBI1 242003Z 04007KT 20/M01 A3008 RMK A01 T01951006  RH  026%=      5-min Rain = 0
KBI1 242004Z 03006KT 20/M01 A3008 RMK A01 T01951007  RH  026%=      5-min Rain = 0
KBI1 242005Z 03005KT 20/M01 A3008 RMK A01 T01951006  RH  026%=      5-min Rain = 0
KBI1 242006Z 03005KT 20/M01 A3008 RMK A01 T01951006  RH  026%=      5-min Rain = 0
KBI1 242007Z 02005KT 20/M00 A3008 RMK A01 T01961004  RH  026%=      5-min Rain = 0
KBI1 242008Z 03006KT 20/00 A3008 RMK A01 T019900-0  RH  026%=      5-min Rain = 0
KBI1 242009Z 01007KT 20/M01 A3008 RMK A01 T02011007  RH  025%=      5-min Rain = 0
KBI1 242010Z 01006KT 20/M00 A3008 RMK A01 T02001004  RH  025%=      5-min Rain = 0
KBI1 242011Z 36005KT 20/M01 A3008 RMK A01 T02001010  RH  024%=      5-min Rain = 0
KBI1 242012Z 02004KT 20/M01 A3008 RMK A01 T01971013  RH  024%=      5-min Rain = 0
KBI1 242013Z 04005KT 20/M01 A3008 RMK A01 T01961009  RH  025%=      5-min Rain = 0
KBI1 242014Z 05004KT 20/M01 A3008 RMK A01 T01961011  RH  025%=      5-min Rain = 0
KBI1 242015Z 05003KT 20/M01 A3008 RMK A01 T01961007  RH  025%=      5-min Rain = 0
KBI1 242016Z 04003KT 20/M01 A3008 RMK A01 T01981010  RH  025%=      5-min Rain = 0
KBI1 242017Z 03002KT 20/M01 A3008 RMK A01 T01981011  RH  024%=      5-min Rain = 0
KBI1 242018Z 01004KT 20/M01 A3008 RMK A01 T01981007  RH  025%=      5-min Rain = 0
KBI1 242019Z 07004KT 20/M00 A3008 RMK A01 T02011004  RH  025%=      5-min Rain = 0
KBI1 242020Z 05004KT 20/M01 A3008 RMK A01 T02021009  RH  024%=      5-min Rain = 0
KBI1 242021Z 05003KT 20/M01 A3008 RMK A01 T02021010  RH  024%=      5-min Rain = 0
KBI1 242022Z 05003KT 20/M01 A3008 RMK A01 T02011007  RH  025%=      5-min Rain = 0
KBI1 242023Z 08003KT 20/M01 A3008 RMK A01 T02011007  RH  025%=      5-min Rain = 0
KBI1 242024Z 03004KT 20/M01 A3008 RMK A01 T02021006  RH  025%=      5-min Rain = 0
KBI1 242025Z 02006KT 20/M01 A3008 RMK A01 T02021007  RH  025%=      5-min Rain = 0
KBI1 242026Z 00004KT 20/M00 A3007 RMK A01 T02031002  RH  025%=      5-min Rain = 0
KBI1 242027Z 35004KT 21/M01 A3007 RMK A01 T02051006  RH  024%=      5-min Rain = 0
KBI1 242028Z 36004KT 21/M01 A3007 RMK A01 T02051007  RH  024%=      5-min Rain = 0
KBI1 242029Z 01007KT 20/M01 A3007 RMK A01 T02041005  RH  024%=      5-min Rain = 0
KBI1 242030Z 01006KT 20/M01 A3007 RMK A01 T02031009  RH  024%=      5-min Rain = 0
KBI1 242031Z 36005KT 20/M01 A3007 RMK A01 T02021008  RH  024%=      5-min Rain = 0
KBI1 242032Z 02006KT 20/M01 A3007 RMK A01 T02011011  RH  024%=      5-min Rain = 0
KBI1 242033Z 00004KT 20/M01 A3007 RMK A01 T02011012  RH  024%=      5-min Rain = 0
KBI1 242034Z 01004KT 20/M01 A3007 RMK A01 T02001012  RH  024%=      5-min Rain = 0
KBI1 242035Z 05005KT 20/M01 A3007 RMK A01 T02011010  RH  024%=      5-min Rain = 0
KBI1 242036Z 03003KT 20/M01 A3007 RMK A01 T02021011  RH  024%=      5-min Rain = 0
KBI1 242037Z 33005KT 20/M01 A3007 RMK A01 T02031012  RH  023%=      5-min Rain = 0
KBI1 242038Z 32005KT 20/M01 A3007 RMK A01 T02041013  RH  023%=      5-min Rain = 0
KBI1 242039Z 32004KT 20/M02 A3007 RMK A01 T02031015  RH  023%=      5-min Rain = 0
KBI1 242040Z 33003KT 20/M01 A3007 RMK A01 T02021013  RH  023%=      5-min Rain = 0
KBI1 242041Z 00003KT 20/M02 A3007 RMK A01 T02031015  RH  023%=      5-min Rain = 0
KBI1 242042Z 35005KT 20/M01 A3007 RMK A01 T02041011  RH  024%=      5-min Rain = 0
KBI1 242043Z 35003KT 21/M01 A3007 RMK A01 T02051010  RH  024%=      5-min Rain = 0
KBI1 242044Z 34002KT 21/M01 A3007 RMK A01 T02061014  RH  023%=      5-min Rain = 0
KBI1 242045Z 05003KT 21/M02 A3007 RMK A01 T02071015  RH  023%=      5-min Rain = 0
KBI1 242046Z 03005KT 21/M01 A3007 RMK A01 T02061010  RH  023%=      5-min Rain = 0
KBI1 242047Z 04003KT 20/M01 A3007 RMK A01 T02041012  RH  023%=      5-min Rain = 0
KBI1 242048Z 03006KT 20/M01 A3007 RMK A01 T02041009  RH  024%=      5-min Rain = 0
KBI1 242049Z 03008KT 21/M01 A3007 RMK A01 T02061009  RH  024%=      5-min Rain = 0
KBI1 242050Z 03007KT 21/M02 A3007 RMK A01 T02051015  RH  023%=      5-min Rain = 0
KBI1 242051Z 01007KT 20/M01 A3007 RMK A01 T02021014  RH  023%=      5-min Rain = 0
KBI1 242052Z 36008KT 20/M01 A3007 RMK A01 T02041009  RH  024%=      5-min Rain = 0
KBI1 242053Z 01008KT 21/M01 A3007 RMK A01 T02061014  RH  023%=      5-min Rain = 0
KBI1 242054Z 36007KT 21/M01 A3007 RMK A01 T02051009  RH  024%=      5-min Rain = 0
KBI1 242055Z 34006KT 21/M01 A3007 RMK A01 T02061012  RH  023%=      5-min Rain = 0
KBI1 242056Z 33005KT 21/M02 A3007 RMK A01 T02071016  RH  022%=      5-min Rain = 0
KBI1 242057Z 33002KT 21/M02 A3007 RMK A01 T02051018  RH  022%=      5-min Rain = 0
KBI1 242058Z 34003KT 21/M02 A3007 RMK A01 T02051017  RH  022%=      5-min Rain = 0
KBI1 242059Z 32003KT 21/M02 A3007 RMK A01 T02051017  RH  022%=      5-min Rain = 0
KBI1 242100Z 33003KT 21/M02 A3007 RMK A01 T02051017  RH  022%=      5-min Rain = 0
KBI1 242101Z 31002KT 21/M02 A3007 RMK A01 T02051018  RH  022%=      5-min Rain = 0
KBI1 242102Z 32002KT 21/M02 A3007 RMK A01 T02051018  RH  022%=      5-min Rain = 0
KBI1 242103Z 04003KT 21/M01 A3007 RMK A01 T02051012  RH  023%=      5-min Rain = 0
KBI1 242104Z 05005KT 21/M01 A3007 RMK A01 T02081008  RH  023%=      5-min Rain = 0
KBI1 242105Z 03005KT 21/M01 A3007 RMK A01 T02091012  RH  023%=      5-min Rain = 0
KBI1 242106Z 02004KT 21/M01 A3007 RMK A01 T02091012  RH  023%=      5-min Rain = 0
KBI1 242107Z 00009KT 21/M01 A3007 RMK A01 T02081013  RH  023%=      5-min Rain = 0
KBI1 242108Z 01009KT 21/M01 A3007 RMK A01 T02071014  RH  023%=      5-min Rain = 0
KBI1 242109Z 35006KT 21/M01 A3007 RMK A01 T02061012  RH  023%=      5-min Rain = 0
KBI1 242110Z 33006KT 21/M01 A3007 RMK A01 T02071012  RH  023%=      5-min Rain = 0
KBI1 242111Z 34004KT 21/M02 A3007 RMK A01 T02071016  RH  022%=      5-min Rain = 0
KBI1 242112Z 02003KT 21/M01 A3007 RMK A01 T02071010  RH  023%=      5-min Rain = 0
KBI1 242113Z 04006KT 21/M01 A3007 RMK A01 T02091011  RH  023%=      5-min Rain = 0
KBI1 242114Z 05005KT 21/M01 A3007 RMK A01 T02091014  RH  022%=      5-min Rain = 0
KBI1 242115Z 06004KT 21/M01 A3007 RMK A01 T02081014  RH  023%=      5-min Rain = 0
KBI1 242116Z 04003KT 21/M02 A3007 RMK A01 T02071015  RH  022%=      5-min Rain = 0
KBI1 242117Z 01003KT 21/M02 A3007 RMK A01 T02071016  RH  022%=      5-min Rain = 0
KBI1 242118Z 01003KT 21/M01 A3007 RMK A01 T02071012  RH  023%=      5-min Rain = 0
KBI1 242119Z 01006KT 21/M01 A3007 RMK A01 T02071009  RH  023%=      5-min Rain = 0
KBI1 242120Z 01006KT 21/M01 A3007 RMK A01 T02081007  RH  024%=      5-min Rain = 0
KBI1 242121Z 02007KT 21/M01 A3007 RMK A01 T02091011  RH  023%=      5-min Rain = 0
KBI1 242122Z 01007KT 21/M01 A3007 RMK A01 T02091011  RH  023%=      5-min Rain = 0
KBI1 242123Z 36007KT 21/M01 A3007 RMK A01 T02081008  RH  024%=      5-min Rain = 0
KBI1 242124Z 36005KT 21/M01 A3007 RMK A01 T02091011  RH  023%=      5-min Rain = 0
KBI1 242125Z 36004KT 21/M01 A3007 RMK A01 T02081013  RH  023%=      5-min Rain = 0
KBI1 242126Z 36005KT 21/M01 A3007 RMK A01 T02071010  RH  023%=      5-min Rain = 0
KBI1 242127Z 00006KT 21/M01 A3007 RMK A01 T02081012  RH  023%=      5-min Rain = 0
KBI1 242128Z 05003KT 21/M02 A3007 RMK A01 T02071015  RH  022%=      5-min Rain = 0
KBI1 242129Z 03005KT 21/M01 A3006 RMK A01 T02061010  RH  023%=      5-min Rain = 0
KBI1 242130Z 02006KT 21/M01 A3007 RMK A01 T02081009  RH  023%=      5-min Rain = 0
KBI1 242131Z 02005KT 21/M01 A3007 RMK A01 T02101013  RH  022%=      5-min Rain = 0
KBI1 242132Z 01002KT 21/M02 A3007 RMK A01 T02081015  RH  022%=      5-min Rain = 0
KBI1 242133Z 03001KT 21/M02 A3007 RMK A01 T02071016  RH  022%=      5-min Rain = 0
KBI1 242134Z 30001KT 21/M02 A3006 RMK A01 T02061016  RH  022%=      5-min Rain = 0
KBI1 242135Z 32004KT 21/M01 A3006 RMK A01 T02071013  RH  023%=      5-min Rain = 0
KBI1 242136Z 00007KT 21/M01 A3006 RMK A01 T02101009  RH  023%=      5-min Rain = 0
KBI1 242137Z 35005KT 21/M01 A3006 RMK A01 T02111013  RH  022%=      5-min Rain = 0
KBI1 242138Z 32004KT 21/M01 A3006 RMK A01 T02091014  RH  022%=      5-min Rain = 0
KBI1 242139Z 29002KT 21/M02 A3006 RMK A01 T02081015  RH  022%=      5-min Rain = 0
KBI1 242140Z 34001KT 21/M02 A3006 RMK A01 T02071015  RH  022%=      5-min Rain = 0
KBI1 242141Z 03005KT 21/M01 A3006 RMK A01 T02081012  RH  023%=      5-min Rain = 0
KBI1 242142Z 02006KT 21/M01 A3006 RMK A01 T02111010  RH  023%=      5-min Rain = 0
KBI1 242143Z 34007KT 21/M01 A3006 RMK A01 T02121013  RH  022%=      5-min Rain = 0
KBI1 242144Z 36005KT 21/M02 A3006 RMK A01 T02111015  RH  022%=      5-min Rain = 0
KBI1 242145Z 02004KT 21/M01 A3006 RMK A01 T02111013  RH  022%=      5-min Rain = 0
KBI1 242146Z 00003KT 21/M02 A3006 RMK A01 T02111015  RH  022%=      5-min Rain = 0
KBI1 242147Z 36004KT 21/M01 A3006 RMK A01 T02111013  RH  022%=      5-min Rain = 0
KBI1 242148Z 34007KT 21/M01 A3006 RMK A01 T02111012  RH  022%=      5-min Rain = 0
KBI1 242149Z 34008KT 21/M01 A3006 RMK A01 T02121013  RH  022%=      5-min Rain = 0
KBI1 242150Z 34007KT 21/M01 A3006 RMK A01 T02121012  RH  022%=      5-min Rain = 0
KBI1 242151Z 33004KT 21/M02 A3006 RMK A01 T02111016  RH  022%=      5-min Rain = 0
KBI1 242152Z 32003KT 21/M02 A3006 RMK A01 T02091015  RH  022%=      5-min Rain = 0
KBI1 242153Z 32002KT 21/M01 A3006 RMK A01 T02091014  RH  022%=      5-min Rain = 0
KBI1 242154Z 32003KT 21/M01 A3006 RMK A01 T02101013  RH  022%=      5-min Rain = 0
KBI1 242155Z 34003KT 21/M01 A3006 RMK A01 T02121008  RH  023%=      5-min Rain = 0
KBI1 242156Z 00002KT 21/M01 A3006 RMK A01 T02141012  RH  022%=      5-min Rain = 0
KBI1 242157Z 02003KT 21/M01 A3006 RMK A01 T02141012  RH  022%=      5-min Rain = 0
KBI1 242158Z 03004KT 22/M02 A3006 RMK A01 T02151016  RH  021%=      5-min Rain = 0
KBI1 242159Z 05004KT 21/M02 A3006 RMK A01 T02141018  RH  021%=      5-min Rain = 0
KBI1 242200Z 06003KT 21/M02 A3006 RMK A01 T02121019  RH  021%=      5-min Rain = 0
KBI1 242201Z 04003KT 21/M02 A3006 RMK A01 T02111018  RH  021%=      5-min Rain = 0
KBI1 242202Z 05005KT 21/M01 A3006 RMK A01 T02121011  RH  022%=      5-min Rain = 0
KBI1 242203Z 03005KT 21/M01 A3006 RMK A01 T02141010  RH  022%=      5-min Rain = 0
KBI1 242204Z 04004KT 22/M01 A3006 RMK A01 T02151014  RH  021%=      5-min Rain = 0
KBI1 242205Z 05004KT 21/M02 A3006 RMK A01 T02141015  RH  021%=      5-min Rain = 0
KBI1 242206Z 06003KT 21/M02 A3006 RMK A01 T02131017  RH  021%=      5-min Rain = 0
KBI1 242207Z 07003KT 21/M02 A3006 RMK A01 T02121017  RH  021%=      5-min Rain = 0
KBI1 242208Z 01002KT 21/M02 A3006 RMK A01 T02111016  RH  022%=      5-min Rain = 0
KBI1 242209Z 34004KT 21/M01 A3006 RMK A01 T02111014  RH  022%=      5-min Rain = 0
KBI1 242210Z 00006KT 21/M01 A3006 RMK A01 T02121009  RH  023%=      5-min Rain = 0
KBI1 242211Z 35004KT 21/M01 A3006 RMK A01 T02131012  RH  022%=      5-min Rain = 0
KBI1 242212Z 33003KT 21/M01 A3006 RMK A01 T02131012  RH  022%=      5-min Rain = 0
KBI1 242213Z 02004KT 21/M01 A3006 RMK A01 T02131011  RH  022%=      5-min Rain = 0
KBI1 242214Z 04006KT 21/M01 A3006 RMK A01 T02131010  RH  022%=      5-min Rain = 0
KBI1 242215Z 03005KT 21/M01 A3006 RMK A01 T02141012  RH  022%=      5-min Rain = 0
KBI1 242216Z 02002KT 21/M01 A3006 RMK A01 T02121014  RH  022%=      5-min Rain = 0
KBI1 242217Z 01002KT 21/M01 A3006 RMK A01 T02121013  RH  022%=      5-min Rain = 0
KBI1 242218Z 05005KT 21/M01 A3006 RMK A01 T02131009  RH  023%=      5-min Rain = 0
KBI1 242219Z 04005KT 21/M01 A3006 RMK A01 T02141013  RH  022%=      5-min Rain = 0
KBI1 242220Z 02007KT 21/M01 A3006 RMK A01 T02131010  RH  022%=      5-min Rain = 0
KBI1 242221Z 02005KT 21/M01 A3006 RMK A01 T02131013  RH  022%=      5-min Rain = 0
KBI1 242222Z 35004KT 21/M01 A3006 RMK A01 T02141012  RH  022%=      5-min Rain = 0
KBI1 242223Z 01005KT 21/M01 A3006 RMK A01 T02141014  RH  022%=      5-min Rain = 0
KBI1 242224Z 05005KT 21/M01 A3006 RMK A01 T02141010  RH  022%=      5-min Rain = 0
KBI1 242225Z 04005KT 21/M01 A3006 RMK A01 T02141013  RH  022%=      5-min Rain = 0
KBI1 242226Z 05004KT 21/M02 A3006 RMK A01 T02141015  RH  021%=      5-min Rain = 0
KBI1 242227Z 06004KT 21/M01 A3006 RMK A01 T02141014  RH  022%=      5-min Rain = 0
KBI1 242228Z 05005KT 21/M02 A3006 RMK A01 T02131015  RH  022%=      5-min Rain = 0
KBI1 242229Z 04004KT 21/M01 A3005 RMK A01 T02131011  RH  022%=      5-min Rain = 0
KBI1 242230Z 02004KT 21/M01 A3005 RMK A01 T02141014  RH  022%=      5-min Rain = 0
KBI1 242231Z 03007KT 21/M01 A3005 RMK A01 T02141013  RH  022%=      5-min Rain = 0
KBI1 242232Z 03006KT 21/M02 A3005 RMK A01 T02131015  RH  022%=      5-min Rain = 0
KBI1 242233Z 04006KT 21/M02 A3005 RMK A01 T02131017  RH  021%=      5-min Rain = 0
KBI1 242234Z 03005KT 21/M01 A3005 RMK A01 T02131014  RH  022%=      5-min Rain = 0
KBI1 242235Z 04004KT 21/M01 A3005 RMK A01 T02141014  RH  022%=      5-min Rain = 0
KBI1 242236Z 01005KT 22/M01 A3005 RMK A01 T02151013  RH  022%=      5-min Rain = 0
KBI1 242237Z 01006KT 22/M02 A3005 RMK A01 T02161015  RH  021%=      5-min Rain = 0
KBI1 242238Z 02004KT 22/M01 A3005 RMK A01 T02151014  RH  021%=      5-min Rain = 0
KBI1 242239Z 36005KT 21/M01 A3005 RMK A01 T02141010  RH  022%=      5-min Rain = 0
KBI1 242240Z 00007KT 21/M01 A3005 RMK A01 T02141009  RH  022%=      5-min Rain = 0
KBI1 242241Z 02007KT 22/M01 A3005 RMK A01 T02151013  RH  022%=      5-min Rain = 0
KBI1 242242Z 01008KT 22/M01 A3005 RMK A01 T02151014  RH  021%=      5-min Rain = 0
KBI1 242243Z 02008KT 22/M02 A3005 RMK A01 T02151016  RH  021%=      5-min Rain = 0
KBI1 242244Z 01006KT 21/M02 A3005 RMK A01 T02141016  RH  021%=      5-min Rain = 0
KBI1 242245Z 01006KT 21/M02 A3005 RMK A01 T02141016  RH  021%=      5-min Rain = 0
KBI1 242246Z 00005KT 21/M02 A3005 RMK A01 T02141016  RH  021%=      5-min Rain = 0
KBI1 242247Z 01005KT 21/M02 A3005 RMK A01 T02141015  RH  022%=      5-min Rain = 0
KBI1 242248Z 34004KT 21/M01 A3005 RMK A01 T02141012  RH  022%=      5-min Rain = 0
KBI1 242249Z 36004KT 21/M01 A3004 RMK A01 T02141013  RH  022%=      5-min Rain = 0
KBI1 242250Z 35005KT 22/M01 A3005 RMK A01 T02151014  RH  022%=      5-min Rain = 0
KBI1 242251Z 01005KT 22/M02 A3005 RMK A01 T02151015  RH  021%=      5-min Rain = 0
KBI1 242252Z 02006KT 21/M02 A3005 RMK A01 T02141015  RH  021%=      5-min Rain = 0
KBI1 242253Z 02005KT 21/M02 A3005 RMK A01 T02141015  RH  022%=      5-min Rain = 0
KBI1 242254Z 01004KT 21/M02 A3005 RMK A01 T02121016  RH  022%=      5-min Rain = 0
KBI1 242255Z 00004KT 21/M01 A3005 RMK A01 T02121014  RH  022%=      5-min Rain = 0
KBI1 242256Z 01003KT 21/M02 A3005 RMK A01 T02121016  RH  022%=      5-min Rain = 0
KBI1 242257Z 04003KT 21/M02 A3005 RMK A01 T02111015  RH  022%=      5-min Rain = 0
KBI1 242258Z 03003KT 21/M02 A3005 RMK A01 T02111017  RH  022%=      5-min Rain = 0
KBI1 242259Z 07003KT 21/M02 A3005 RMK A01 T02121017  RH  022%=      5-min Rain = 0
KBI1 242300Z 05003KT 21/M01 A3005 RMK A01 T02121014  RH  022%=      5-min Rain = 0
KBI1 242301Z 06004KT 21/M02 A3004 RMK A01 T02121015  RH  022%=      5-min Rain = 0
KBI1 242302Z 04006KT 21/M01 A3004 RMK A01 T02131013  RH  022%=      5-min Rain = 0
KBI1 242303Z 04006KT 21/M02 A3005 RMK A01 T02121017  RH  021%=      5-min Rain = 0
KBI1 242304Z 02006KT 21/M02 A3005 RMK A01 T02121015  RH  022%=      5-min Rain = 0
KBI1 242305Z 02006KT 21/M01 A3004 RMK A01 T02121014  RH  022%=      5-min Rain = 0
KBI1 242306Z 04006KT 21/M01 A3004 RMK A01 T02121014  RH  022%=      5-min Rain = 0
KBI1 242307Z 04006KT 21/M01 A3004 RMK A01 T02131014  RH  022%=      5-min Rain = 0
KBI1 242308Z 05005KT 21/M02 A3004 RMK A01 T02131015  RH  022%=      5-min Rain = 0
KBI1 242309Z 03005KT 21/M02 A3004 RMK A01 T02131015  RH  022%=      5-min Rain = 0
KBI1 242310Z 01003KT 21/M02 A3004 RMK A01 T02121016  RH  022%=      5-min Rain = 0
KBI1 242311Z 02001KT 21/M02 A3004 RMK A01 T02121016  RH  022%=      5-min Rain = 0
KBI1 242312Z 36002KT 21/M02 A3004 RMK A01 T02111015  RH  022%=      5-min Rain = 0
KBI1 242313Z 00005KT 21/M01 A3004 RMK A01 T02121011  RH  022%=      5-min Rain = 0
KBI1 242314Z 03005KT 21/M01 A3004 RMK A01 T02131008  RH  023%=      5-min Rain = 0
KBI1 242315Z 03005KT 21/M01 A3004 RMK A01 T02131014  RH  022%=      5-min Rain = 0
KBI1 242316Z 02005KT 21/M02 A3004 RMK A01 T02131016  RH  021%=      5-min Rain = 0
KBI1 242317Z 02005KT 21/M02 A3004 RMK A01 T02121017  RH  021%=      5-min Rain = 0
KBI1 242318Z 02005KT 21/M02 A3004 RMK A01 T02111016  RH  022%=      5-min Rain = 0
KBI1 242319Z 02004KT 21/M02 A3004 RMK A01 T02111017  RH  021%=      5-min Rain = 0
KBI1 242320Z 04003KT 21/M01 A3004 RMK A01 T02111013  RH  022%=      5-min Rain = 0
KBI1 242321Z 03005KT 21/M02 A3004 RMK A01 T02111015  RH  022%=      5-min Rain = 0
KBI1 242322Z 06006KT 21/M01 A3004 RMK A01 T02121014  RH  022%=      5-min Rain = 0
KBI1 242323Z 07005KT 21/M02 A3004 RMK A01 T02131016  RH  022%=      5-min Rain = 0
KBI1 242324Z 06006KT 21/M02 A3004 RMK A01 T02121019  RH  021%=      5-min Rain = 0
KBI1 242325Z 06005KT 21/M02 A3004 RMK A01 T02121017  RH  021%=      5-min Rain = 0
KBI1 242326Z 05006KT 21/M01 A3004 RMK A01 T02111013  RH  022%=      5-min Rain = 0
KBI1 242327Z 06007KT 21/M01 A3004 RMK A01 T02121013  RH  022%=      5-min Rain = 0
KBI1 242328Z 06007KT 21/M02 A3004 RMK A01 T02131015  RH  022%=      5-min Rain = 0
KBI1 242329Z 07005KT 21/M01 A3004 RMK A01 T02121014  RH  022%=      5-min Rain = 0
KBI1 242330Z 06006KT 21/M01 A3004 RMK A01 T02121014  RH  022%=      5-min Rain = 0
KBI1 242331Z 06007KT 21/M02 A3004 RMK A01 T02111017  RH  022%=      5-min Rain = 0
KBI1 242332Z 05005KT 21/M02 A3004 RMK A01 T02111017  RH  022%=      5-min Rain = 0
KBI1 242333Z 03005KT 21/M02 A3004 RMK A01 T02101016  RH  022%=      5-min Rain = 0
KBI1 242334Z 03005KT 21/M02 A3004 RMK A01 T02101016  RH  022%=      5-min Rain = 0
KBI1 242335Z 03006KT 21/M01 A3004 RMK A01 T02101013  RH  022%=      5-min Rain = 0
KBI1 242336Z 05007KT 21/M01 A3004 RMK A01 T02101013  RH  022%=      5-min Rain = 0
KBI1 242337Z 03006KT 21/M02 A3005 RMK A01 T02101017  RH  022%=      5-min Rain = 0
KBI1 242338Z 04008KT 21/M02 A3005 RMK A01 T02101016  RH  022%=      5-min Rain = 0
KBI1 242339Z 05008KT 21/M02 A3005 RMK A01 T02101019  RH  022%=      5-min Rain = 0
KBI1 242340Z 05007KT 21/M02 A3005 RMK A01 T02091017  RH  022%=      5-min Rain = 0
KBI1 242341Z 05007KT 21/M02 A3005 RMK A01 T02091017  RH  022%=      5-min Rain = 0
KBI1 242342Z 04006KT 21/M02 A3005 RMK A01 T02091018  RH  022%=      5-min Rain = 0
KBI1 242343Z 04005KT 21/M02 A3005 RMK A01 T02091016  RH  022%=      5-min Rain = 0
KBI1 242344Z 03006KT 21/M02 A3005 RMK A01 T02091017  RH  022%=      5-min Rain = 0
KBI1 242345Z 04005KT 21/M02 A3005 RMK A01 T02081019  RH  022%=      5-min Rain = 0
KBI1 242346Z 04004KT 21/M01 A3005 RMK A01 T02081014  RH  023%=      5-min Rain = 0
KBI1 242347Z 03004KT 21/M02 A3005 RMK A01 T02081015  RH  022%=      5-min Rain = 0
KBI1 242348Z 04006KT 21/M02 A3005 RMK A01 T02081016  RH  022%=      5-min Rain = 0
KBI1 242349Z 04005KT 21/M02 A3005 RMK A01 T02081017  RH  022%=      5-min Rain = 0
KBI1 242350Z 05007KT 21/M02 A3005 RMK A01 T02081016  RH  022%=      5-min Rain = 0
KBI1 242351Z 04006KT 21/M01 A3004 RMK A01 T02081011  RH  023%=      5-min Rain = 0
KBI1 242352Z 06007KT 21/M01 A3005 RMK A01 T02071009  RH  023%=      5-min Rain = 0
KBI1 242353Z 06007KT 21/M01 A3005 RMK A01 T02071007  RH  024%=      5-min Rain = 0
KBI1 242354Z 04007KT 21/M01 A3005 RMK A01 T02071006  RH  024%=      5-min Rain = 0
KBI1 242355Z 05006KT 21/M01 A3005 RMK A01 T02071005  RH  024%=      5-min Rain = 0
KBI1 242356Z 05007KT 21/M01 A3005 RMK A01 T02071006  RH  024%=      5-min Rain = 0
KBI1 242357Z 07007KT 21/M01 A3005 RMK A01 T02071006  RH  024%=      5-min Rain = 0
KBI1 242358Z 07006KT 21/M01 A3005 RMK A01 T02071007  RH  024%=      5-min Rain = 0
KBI1 242359Z 08007KT 21/M01 A3005 RMK A01 T02061007  RH  024%=      5-min Rain = 0
KBI1 250000Z 07005KT 21/M01 A3005 RMK A01 T02061006  RH  024%=      5-min Rain = 0
KBI1 250001Z 06007KT 21/M01 A3005 RMK A01 T02051008  RH  024%=      5-min Rain = 0
KBI1 250002Z 07006KT 21/M01 A3005 RMK A01 T02051009  RH  024%=      5-min Rain = 0
KBI1 250003Z 08008KT 21/M01 A3005 RMK A01 T02051009  RH  024%=      5-min Rain = 0
KBI1 250004Z 08007KT 21/M01 A3005 RMK A01 T02051009  RH  024%=      5-min Rain = 0
KBI1 250005Z 06006KT 21/M01 A3005 RMK A01 T02051007  RH  024%=      5-min Rain = 0
KBI1 250006Z 06006KT 20/M01 A3005 RMK A01 T02041007  RH  024%=      5-min Rain = 0
KBI1 250007Z 06007KT 20/M01 A3005 RMK A01 T02041007  RH  024%=      5-min Rain = 0
KBI1 250008Z 07006KT 20/M01 A3005 RMK A01 T02041008  RH  024%=      5-min Rain = 0
KBI1 250009Z 07006KT 20/M01 A3005 RMK A01 T02031008  RH  024%=      5-min Rain = 0
KBI1 250010Z 07006KT 20/M01 A3005 RMK A01 T02031008  RH  024%=      5-min Rain = 0
KBI1 250011Z 07007KT 20/M01 A3005 RMK A01 T02031009  RH  024%=      5-min Rain = 0
KBI1 250012Z 06004KT 20/M01 A3005 RMK A01 T02031008  RH  024%=      5-min Rain = 0
KBI1 250013Z 06005KT 20/M01 A3005 RMK A01 T02021005  RH  025%=      5-min Rain = 0
KBI1 250014Z 06006KT 20/M01 A3005 RMK A01 T02021007  RH  025%=      5-min Rain = 0
KBI1 250015Z 07005KT 20/M01 A3005 RMK A01 T02011008  RH  024%=      5-min Rain = 0
KBI1 250016Z 07006KT 20/M01 A3005 RMK A01 T02021008  RH  024%=      5-min Rain = 0
KBI1 250017Z 06005KT 20/M01 A3005 RMK A01 T02021008  RH  024%=      5-min Rain = 0
KBI1 250018Z 06005KT 20/M01 A3005 RMK A01 T02011009  RH  024%=      5-min Rain = 0
KBI1 250019Z 07005KT 20/M01 A3005 RMK A01 T02011008  RH  024%=      5-min Rain = 0
KBI1 250020Z 07004KT 20/M01 A3005 RMK A01 T02011009  RH  024%=      5-min Rain = 0
KBI1 250021Z 07005KT 20/M01 A3005 RMK A01 T02001007  RH  025%=      5-min Rain = 0
KBI1 250022Z 06004KT 20/M01 A3005 RMK A01 T01991008  RH  025%=      5-min Rain = 0
KBI1 250023Z 07005KT 20/M01 A3005 RMK A01 T01991007  RH  025%=      5-min Rain = 0
KBI1 250024Z 06004KT 20/M01 A3005 RMK A01 T01981010  RH  025%=      5-min Rain = 0
KBI1 250025Z 06005KT 20/M01 A3005 RMK A01 T01981008  RH  025%=      5-min Rain = 0
KBI1 250026Z 06004KT 20/M01 A3005 RMK A01 T01981010  RH  025%=      5-min Rain = 0
KBI1 250027Z 06003KT 20/M01 A3005 RMK A01 T01981007  RH  025%=      5-min Rain = 0
KBI1 250028Z 05004KT 20/M01 A3005 RMK A01 T01961007  RH  025%=      5-min Rain = 0
KBI1 250029Z 05004KT 20/M01 A3005 RMK A01 T01961009  RH  025%=      5-min Rain = 0
KBI1 250030Z 05005KT 20/M01 A3005 RMK A01 T01961008  RH  025%=      5-min Rain = 0
KBI1 250031Z 05005KT 20/M01 A3005 RMK A01 T01951007  RH  026%=      5-min Rain = 0
KBI1 250032Z 06005KT 19/M01 A3005 RMK A01 T01941007  RH  026%=      5-min Rain = 0
KBI1 250033Z 05005KT 19/M01 A3005 RMK A01 T01941007  RH  026%=      5-min Rain = 0
KBI1 250034Z 06004KT 19/M01 A3005 RMK A01 T01931006  RH  026%=      5-min Rain = 0
KBI1 250035Z 06004KT 19/M01 A3005 RMK A01 T01921006  RH  026%=      5-min Rain = 0
KBI1 250036Z 06004KT 19/M01 A3005 RMK A01 T01921005  RH  026%=      5-min Rain = 0
KBI1 250037Z 06004KT 19/M01 A3005 RMK A01 T01911006  RH  027%=      5-min Rain = 0
KBI1 250038Z 06003KT 19/M01 A3005 RMK A01 T01911005  RH  027%=      5-min Rain = 0
KBI1 250039Z 06005KT 19/M01 A3005 RMK A01 T01901006  RH  027%=      5-min Rain = 0
KBI1 250040Z 06004KT 19/M01 A3005 RMK A01 T01901006  RH  027%=      5-min Rain = 0
KBI1 250041Z 06005KT 19/M01 A3005 RMK A01 T01901005  RH  027%=      5-min Rain = 0
KBI1 250042Z 06005KT 19/M00 A3005 RMK A01 T01901004  RH  027%=      5-min Rain = 0
KBI1 250043Z 06005KT 19/M00 A3006 RMK A01 T01891004  RH  027%=      5-min Rain = 0
KBI1 250044Z 06005KT 19/M00 A3006 RMK A01 T01881004  RH  027%=      5-min Rain = 0
KBI1 250045Z 06005KT 19/M00 A3006 RMK A01 T01871004  RH  028%=      5-min Rain = 0
KBI1 250046Z 06004KT 19/M00 A3006 RMK A01 T01871004  RH  028%=      5-min Rain = 0
KBI1 250047Z 06005KT 19/M00 A3006 RMK A01 T01871003  RH  028%=      5-min Rain = 0
KBI1 250048Z 05005KT 19/M00 A3006 RMK A01 T01861004  RH  028%=      5-min Rain = 0
KBI1 250049Z 05004KT 19/M00 A3006 RMK A01 T01861004  RH  028%=      5-min Rain = 0
KBI1 250050Z 06004KT 19/M00 A3006 RMK A01 T01851003  RH  028%=      5-min Rain = 0
KBI1 250051Z 05004KT 19/M00 A3006 RMK A01 T01851003  RH  028%=      5-min Rain = 0
KBI1 250052Z 05005KT 18/M00 A3006 RMK A01 T01841003  RH  028%=      5-min Rain = 0
KBI1 250053Z 06005KT 18/M00 A3006 RMK A01 T01841003  RH  028%=      5-min Rain = 0
KBI1 250054Z 05005KT 18/M00 A3006 RMK A01 T01831003  RH  029%=      5-min Rain = 0
KBI1 250055Z 06005KT 18/M00 A3006 RMK A01 T01831002  RH  029%=      5-min Rain = 0
KBI1 250056Z 05005KT 18/M00 A3006 RMK A01 T01821002  RH  029%=      5-min Rain = 0
KBI1 250057Z 05005KT 18/M00 A3006 RMK A01 T01821003  RH  029%=      5-min Rain = 0
KBI1 250058Z 05005KT 18/M00 A3006 RMK A01 T01821003  RH  029%=      5-min Rain = 0
KBI1 250059Z 05004KT 18/M00 A3006 RMK A01 T01811001  RH  029%=      5-min Rain = 0
KBI1 250100Z 06005KT 18/00 A3006 RMK A01 T018000-0  RH  030%=      5-min Rain = 0
KBI1 250101Z 06004KT 18/M00 A3006 RMK A01 T01791001  RH  030%=      5-min Rain = 0
KBI1 250102Z 06004KT 18/M00 A3006 RMK A01 T01791001  RH  030%=      5-min Rain = 0
KBI1 250103Z 06004KT 18/M00 A3006 RMK A01 T01781001  RH  030%=      5-min Rain = 0
KBI1 250104Z 07004KT 18/M00 A3007 RMK A01 T01781001  RH  030%=      5-min Rain = 0
KBI1 250105Z 07004KT 18/M00 A3007 RMK A01 T01781001  RH  030%=      5-min Rain = 0
KBI1 250106Z 07004KT 18/00 A3007 RMK A01 T017800-0  RH  030%=      5-min Rain = 0
KBI1 250107Z 07005KT 18/00 A3007 RMK A01 T01770001  RH  030%=      5-min Rain = 0
KBI1 250108Z 07005KT 18/00 A3007 RMK A01 T01770001  RH  030%=      5-min Rain = 0
KBI1 250109Z 06005KT 18/00 A3007 RMK A01 T01760002  RH  031%=      5-min Rain = 0
KBI1 250110Z 06006KT 18/00 A3007 RMK A01 T01750001  RH  031%=      5-min Rain = 0
KBI1 250111Z 06006KT 18/00 A3006 RMK A01 T01750002  RH  031%=      5-min Rain = 0
KBI1 250112Z 06005KT 17/00 A3007 RMK A01 T01740003  RH  031%=      5-min Rain = 0
KBI1 250113Z 07005KT 17/00 A3007 RMK A01 T01740003  RH  032%=      5-min Rain = 0
KBI1 250114Z 06006KT 17/00 A3007 RMK A01 T01730003  RH  032%=      5-min Rain = 0
KBI1 250115Z 06006KT 17/00 A3007 RMK A01 T01740003  RH  032%=      5-min Rain = 0
KBI1 250116Z 06005KT 17/00 A3007 RMK A01 T01740003  RH  032%=      5-min Rain = 0
KBI1 250117Z 07005KT 17/00 A3007 RMK A01 T01730004  RH  032%=      5-min Rain = 0
KBI1 250118Z 06005KT 17/00 A3007 RMK A01 T01730004  RH  032%=      5-min Rain = 0
KBI1 250119Z 07005KT 17/00 A3007 RMK A01 T01730004  RH  032%=      5-min Rain = 0
KBI1 250120Z 06005KT 17/00 A3007 RMK A01 T01720004  RH  032%=      5-min Rain = 0
KBI1 250121Z 06006KT 17/00 A3007 RMK A01 T01730004  RH  032%=      5-min Rain = 0
KBI1 250122Z 07006KT 17/01 A3007 RMK A01 T01730005  RH  032%=      5-min Rain = 0
KBI1 250123Z 07005KT 17/01 A3007 RMK A01 T01720005  RH  032%=      5-min Rain = 0
KBI1 250124Z 06006KT 17/01 A3007 RMK A01 T01720005  RH  032%=      5-min Rain = 0
KBI1 250125Z 06007KT 17/00 A3007 RMK A01 T01720004  RH  032%=      5-min Rain = 0
KBI1 250126Z 05006KT 17/00 A3007 RMK A01 T01720004  RH  032%=      5-min Rain = 0
KBI1 250127Z 06005KT 17/01 A3007 RMK A01 T01710005  RH  032%=      5-min Rain = 0
KBI1 250128Z 06005KT 17/01 A3007 RMK A01 T01710005  RH  033%=      5-min Rain = 0
KBI1 250129Z 06005KT 17/00 A3007 RMK A01 T01700004  RH  033%=      5-min Rain = 0
KBI1 250130Z 06005KT 17/01 A3007 RMK A01 T01700005  RH  033%=      5-min Rain = 0
KBI1 250131Z 07005KT 17/00 A3008 RMK A01 T01700004  RH  032%=      5-min Rain = 0
KBI1 250132Z 07005KT 17/01 A3008 RMK A01 T01700005  RH  033%=      5-min Rain = 0
KBI1 250133Z 07005KT 17/01 A3008 RMK A01 T01700006  RH  033%=      5-min Rain = 0
KBI1 250134Z 07006KT 17/01 A3008 RMK A01 T01690005  RH  033%=      5-min Rain = 0
KBI1 250135Z 07007KT 17/01 A3008 RMK A01 T01680005  RH  033%=      5-min Rain = 0
KBI1 250136Z 06006KT 17/01 A3008 RMK A01 T01670005  RH  033%=      5-min Rain = 0
KBI1 250137Z 06006KT 17/01 A3008 RMK A01 T01670005  RH  034%=      5-min Rain = 0
KBI1 250138Z 08007KT 17/01 A3008 RMK A01 T01660005  RH  034%=      5-min Rain = 0
KBI1 250139Z 08008KT 17/01 A3008 RMK A01 T01660006  RH  034%=      5-min Rain = 0
KBI1 250140Z 08007KT 17/01 A3008 RMK A01 T01650007  RH  034%=      5-min Rain = 0
KBI1 250141Z 07007KT 16/01 A3008 RMK A01 T01640006  RH  034%=      5-min Rain = 0
KBI1 250142Z 08007KT 16/01 A3008 RMK A01 T01630007  RH  035%=      5-min Rain = 0
KBI1 250143Z 08006KT 16/01 A3008 RMK A01 T01620007  RH  035%=      5-min Rain = 0
KBI1 250144Z 08005KT 16/01 A3008 RMK A01 T01600007  RH  035%=      5-min Rain = 0
KBI1 250145Z 08005KT 16/01 A3008 RMK A01 T01590007  RH  036%=      5-min Rain = 0
KBI1 250146Z 08005KT 16/01 A3008 RMK A01 T01580007  RH  036%=      5-min Rain = 0
KBI1 250147Z 08006KT 16/01 A3008 RMK A01 T01580008  RH  036%=      5-min Rain = 0
KBI1 250148Z 07006KT 16/01 A3008 RMK A01 T01570008  RH  036%=      5-min Rain = 0
KBI1 250149Z 08006KT 16/01 A3008 RMK A01 T01560009  RH  037%=      5-min Rain = 0
KBI1 250150Z 08006KT 16/01 A3008 RMK A01 T01550008  RH  037%=      5-min Rain = 0
KBI1 250151Z 07005KT 15/01 A3008 RMK A01 T01540008  RH  037%=      5-min Rain = 0
KBI1 250152Z 07006KT 15/01 A3008 RMK A01 T01540009  RH  037%=      5-min Rain = 0
KBI1 250153Z 08006KT 15/01 A3008 RMK A01 T01530008  RH  037%=      5-min Rain = 0
KBI1 250154Z 08005KT 15/01 A3008 RMK A01 T01520009  RH  038%=      5-min Rain = 0
KBI1 250155Z 08006KT 15/01 A3008 RMK A01 T01520010  RH  038%=      5-min Rain = 0
KBI1 250156Z 08006KT 15/01 A3008 RMK A01 T01510009  RH  038%=      5-min Rain = 0
KBI1 250157Z 08007KT 15/01 A3008 RMK A01 T01510009  RH  038%=      5-min Rain = 0
KBI1 250158Z 08006KT 15/01 A3008 RMK A01 T01520009  RH  038%=      5-min Rain = 0
KBI1 250159Z 08006KT 15/01 A3008 RMK A01 T01520009  RH  038%=      5-min Rain = 0
KBI1 250200Z 08006KT 15/01 A3008 RMK A01 T01510010  RH  038%=      5-min Rain = 0
KBI1 250201Z 08007KT 15/01 A3008 RMK A01 T01510010  RH  038%=      5-min Rain = 0
KBI1 250202Z 08007KT 15/01 A3008 RMK A01 T01510009  RH  038%=      5-min Rain = 0
KBI1 250203Z 08006KT 15/01 A3008 RMK A01 T01510009  RH  038%=      5-min Rain = 0
KBI1 250204Z 08007KT 15/01 A3008 RMK A01 T01500010  RH  038%=      5-min Rain = 0
KBI1 250205Z 08006KT 15/01 A3008 RMK A01 T01500010  RH  038%=      5-min Rain = 0
KBI1 250206Z 08006KT 15/01 A3008 RMK A01 T01500009  RH  038%=      5-min Rain = 0
KBI1 250207Z 08006KT 15/01 A3008 RMK A01 T01500010  RH  039%=      5-min Rain = 0
KBI1 250208Z 09005KT 15/01 A3008 RMK A01 T01500010  RH  039%=      5-min Rain = 0
KBI1 250209Z 09006KT 15/01 A3008 RMK A01 T01490010  RH  039%=      5-min Rain = 0
KBI1 250210Z 08006KT 15/01 A3008 RMK A01 T01490010  RH  039%=      5-min Rain = 0
KBI1 250211Z 09006KT 15/01 A3008 RMK A01 T01480010  RH  039%=      5-min Rain = 0
KBI1 250212Z 09006KT 15/01 A3008 RMK A01 T01480011  RH  039%=      5-min Rain = 0
KBI1 250213Z 09007KT 15/01 A3008 RMK A01 T01470011  RH  039%=      5-min Rain = 0
KBI1 250214Z 08007KT 15/01 A3008 RMK A01 T01470011  RH  040%=      5-min Rain = 0
KBI1 250215Z 08007KT 15/01 A3008 RMK A01 T01470011  RH  040%=      5-min Rain = 0
KBI1 250216Z 08006KT 15/01 A3008 RMK A01 T01470011  RH  040%=      5-min Rain = 0
KBI1 250217Z 08007KT 15/01 A3009 RMK A01 T01470012  RH  040%=      5-min Rain = 0
KBI1 250218Z 09008KT 15/01 A3009 RMK A01 T01450012  RH  040%=      5-min Rain = 0
KBI1 250219Z 09007KT 15/01 A3009 RMK A01 T01460012  RH  040%=      5-min Rain = 0
KBI1 250220Z 08007KT 15/01 A3009 RMK A01 T01450012  RH  040%=      5-min Rain = 0
KBI1 250221Z 08006KT 15/01 A3009 RMK A01 T01450012  RH  040%=      5-min Rain = 0
KBI1 250222Z 09007KT 14/01 A3009 RMK A01 T01440013  RH  041%=      5-min Rain = 0
KBI1 250223Z 08008KT 14/01 A3009 RMK A01 T01440013  RH  041%=      5-min Rain = 0
KBI1 250224Z 09008KT 14/01 A3009 RMK A01 T01430013  RH  041%=      5-min Rain = 0
KBI1 250225Z 09008KT 14/01 A3009 RMK A01 T01440013  RH  041%=      5-min Rain = 0
KBI1 250226Z 09008KT 14/01 A3009 RMK A01 T01440013  RH  041%=      5-min Rain = 0
KBI1 250227Z 08007KT 14/01 A3009 RMK A01 T01440014  RH  041%=      5-min Rain = 0
KBI1 250228Z 08007KT 14/01 A3009 RMK A01 T01430014  RH  041%=      5-min Rain = 0
KBI1 250229Z 08009KT 14/02 A3009 RMK A01 T01440015  RH  042%=      5-min Rain = 0
KBI1 250230Z 08008KT 14/02 A3009 RMK A01 T01440015  RH  041%=      5-min Rain = 0
KBI1 250231Z 08008KT 14/02 A3009 RMK A01 T01430015  RH  042%=      5-min Rain = 0
KBI1 250232Z 09008KT 14/02 A3009 RMK A01 T01440015  RH  042%=      5-min Rain = 0
KBI1 250233Z 08008KT 14/02 A3009 RMK A01 T01440016  RH  042%=      5-min Rain = 0
KBI1 250234Z 09008KT 14/02 A3009 RMK A01 T01440015  RH  042%=      5-min Rain = 0
KBI1 250235Z 09007KT 14/02 A3009 RMK A01 T01440016  RH  042%=      5-min Rain = 0
KBI1 250236Z 08007KT 14/02 A3009 RMK A01 T01430016  RH  042%=      5-min Rain = 0
KBI1 250237Z 09009KT 14/02 A3009 RMK A01 T01430016  RH  042%=      5-min Rain = 0
KBI1 250238Z 09008KT 14/02 A3009 RMK A01 T01420016  RH  042%=      5-min Rain = 0
KBI1 250239Z 08008KT 14/02 A3009 RMK A01 T01430016  RH  042%=      5-min Rain = 0
KBI1 250240Z 08008KT 14/02 A301 RMK A01 T01420016  RH  042%=      5-min Rain = 0
KBI1 250241Z 08008KT 14/02 A301 RMK A01 T01420016  RH  042%=      5-min Rain = 0
KBI1 250242Z 08009KT 14/02 A301 RMK A01 T01420016  RH  042%=      5-min Rain = 0
KBI1 250243Z 08009KT 14/02 A301 RMK A01 T01420016  RH  042%=      5-min Rain = 0
KBI1 250244Z 09009KT 14/02 A301 RMK A01 T01420016  RH  043%=      5-min Rain = 0
KBI1 250245Z 08009KT 14/02 A301 RMK A01 T01420016  RH  042%=      5-min Rain = 0
KBI1 250246Z 08010KT 14/02 A301 RMK A01 T01420016  RH  042%=      5-min Rain = 0
KBI1 250247Z 09009KT 14/02 A301 RMK A01 T01420016  RH  042%=      5-min Rain = 0
KBI1 250248Z 09009KT 14/02 A301 RMK A01 T01420016  RH  043%=      5-min Rain = 0
KBI1 250249Z 09010KT 14/02 A301 RMK A01 T01410016  RH  043%=      5-min Rain = 0
KBI1 250250Z 09009KT 14/02 A301 RMK A01 T01420016  RH  043%=      5-min Rain = 0
KBI1 250251Z 08010KT 14/02 A301 RMK A01 T01410016  RH  043%=      5-min Rain = 0
KBI1 250252Z 08008KT 14/02 A301 RMK A01 T01410016  RH  043%=      5-min Rain = 0
KBI1 250253Z 08008KT 14/02 A301 RMK A01 T01410016  RH  043%=      5-min Rain = 0
KBI1 250254Z 08008KT 14/02 A301 RMK A01 T01400016  RH  043%=      5-min Rain = 0
KBI1 250255Z 08008KT 14/02 A301 RMK A01 T01400016  RH  043%=      5-min Rain = 0
KBI1 250256Z 09007KT 14/02 A301 RMK A01 T01400016  RH  043%=      5-min Rain = 0
KBI1 250257Z 08007KT 14/02 A301 RMK A01 T01390017  RH  043%=      5-min Rain = 0
KBI1 250258Z 09008KT 14/02 A301 RMK A01 T01380016  RH  044%=      5-min Rain = 0
KBI1 250259Z 09008KT 14/02 A301 RMK A01 T01380016  RH  044%=      5-min Rain = 0
KBI1 250300Z 09007KT 14/02 A301 RMK A01 T01380017  RH  044%=      5-min Rain = 0
KBI1 250301Z 09007KT 14/02 A301 RMK A01 T01380017  RH  044%=      5-min Rain = 0
KBI1 250302Z 09007KT 14/02 A301 RMK A01 T01370017  RH  044%=      5-min Rain = 0
KBI1 250303Z 09007KT 14/02 A301 RMK A01 T01370017  RH  044%=      5-min Rain = 0
KBI1 250304Z 09007KT 14/02 A301 RMK A01 T01370017  RH  044%=      5-min Rain = 0
KBI1 250305Z 09009KT 14/02 A301 RMK A01 T01370017  RH  044%=      5-min Rain = 0
KBI1 250306Z 09007KT 14/02 A301 RMK A01 T01370016  RH  044%=      5-min Rain = 0
KBI1 250307Z 09008KT 14/02 A301 RMK A01 T01370016  RH  044%=      5-min Rain = 0
KBI1 250308Z 09008KT 14/02 A301 RMK A01 T01370016  RH  044%=      5-min Rain = 0
KBI1 250309Z 09010KT 14/02 A301 RMK A01 T01370016  RH  044%=      5-min Rain = 0
KBI1 250310Z 09008KT 14/02 A301 RMK A01 T01370016  RH  044%=      5-min Rain = 0
KBI1 250311Z 09008KT 14/02 A301 RMK A01 T01370016  RH  044%=      5-min Rain = 0
KBI1 250312Z 09009KT 14/02 A301 RMK A01 T01370016  RH  044%=      5-min Rain = 0
KBI1 250313Z 08008G13KT 14/02 A301 RMK A01 T01370016  RH  044%=      5-min Rain = 0
KBI1 250314Z 09009KT 14/02 A301 RMK A01 T01370016  RH  044%=      5-min Rain = 0
KBI1 250315Z 09009KT 14/02 A301 RMK A01 T01360015  RH  044%=      5-min Rain = 0
KBI1 250316Z 09010KT 14/02 A301 RMK A01 T01360015  RH  044%=      5-min Rain = 0
KBI1 250317Z 08007KT 14/02 A301 RMK A01 T01360015  RH  044%=      5-min Rain = 0
KBI1 250318Z 08009KT 14/02 A301 RMK A01 T01360016  RH  044%=      5-min Rain = 0
KBI1 250319Z 08008KT 14/02 A301 RMK A01 T01360016  RH  044%=      5-min Rain = 0
KBI1 250320Z 08008KT 14/02 A301 RMK A01 T01350016  RH  044%=      5-min Rain = 0
KBI1 250321Z 08007KT 14/02 A301 RMK A01 T01350016  RH  044%=      5-min Rain = 0
KBI1 250322Z 08008KT 14/02 A301 RMK A01 T01350015  RH  044%=      5-min Rain = 0
KBI1 250323Z 08009KT 13/02 A301 RMK A01 T01340016  RH  044%=      5-min Rain = 0
KBI1 250324Z 08007KT 13/02 A301 RMK A01 T01340016  RH  045%=      5-min Rain = 0
KBI1 250325Z 08007KT 13/02 A301 RMK A01 T01330016  RH  045%=      5-min Rain = 0
KBI1 250326Z 08008KT 13/02 A301 RMK A01 T01320016  RH  045%=      5-min Rain = 0
KBI1 250327Z 07007KT 13/02 A301 RMK A01 T01320017  RH  045%=      5-min Rain = 0
KBI1 250328Z 07008KT 13/02 A301 RMK A01 T01300016  RH  046%=      5-min Rain = 0
KBI1 250329Z 07007KT 13/02 A301 RMK A01 T01300016  RH  046%=      5-min Rain = 0
KBI1 250330Z 07007KT 13/02 A301 RMK A01 T01290016  RH  046%=      5-min Rain = 0
KBI1 250331Z 07005KT 13/02 A301 RMK A01 T01280016  RH  046%=      5-min Rain = 0
KBI1 250332Z 07005KT 13/02 A301 RMK A01 T01270016  RH  047%=      5-min Rain = 0
KBI1 250333Z 07006KT 13/02 A301 RMK A01 T01260016  RH  047%=      5-min Rain = 0
KBI1 250334Z 07005KT 13/02 A301 RMK A01 T01250016  RH  048%=      5-min Rain = 0
KBI1 250335Z 07005KT 12/02 A301 RMK A01 T01230017  RH  048%=      5-min Rain = 0
KBI1 250336Z 07006KT 12/02 A301 RMK A01 T01220017  RH  048%=      5-min Rain = 0
KBI1 250337Z 07007KT 12/02 A301 RMK A01 T01210017  RH  049%=      5-min Rain = 0
KBI1 250338Z 07007KT 12/02 A301 RMK A01 T01210017  RH  049%=      5-min Rain = 0
KBI1 250339Z 07007KT 12/02 A301 RMK A01 T01220017  RH  049%=      5-min Rain = 0
KBI1 250340Z 06007KT 12/02 A3011 RMK A01 T01210017  RH  049%=      5-min Rain = 0
KBI1 250341Z 08008KT 12/02 A3011 RMK A01 T01210017  RH  049%=      5-min Rain = 0
KBI1 250342Z 07008KT 12/02 A3011 RMK A01 T01220016  RH  048%=      5-min Rain = 0
KBI1 250343Z 07009KT 12/02 A3011 RMK A01 T01230016  RH  048%=      5-min Rain = 0
KBI1 250344Z 07009KT 12/02 A3011 RMK A01 T01240016  RH  048%=      5-min Rain = 0
KBI1 250345Z 07007KT 13/02 A3011 RMK A01 T01250016  RH  047%=      5-min Rain = 0
KBI1 250346Z 07007KT 13/02 A3011 RMK A01 T01250015  RH  047%=      5-min Rain = 0
KBI1 250347Z 07007KT 13/02 A3011 RMK A01 T01250015  RH  047%=      5-min Rain = 0
KBI1 250348Z 07009KT 13/02 A3011 RMK A01 T01250015  RH  047%=      5-min Rain = 0
KBI1 250349Z 07009KT 13/02 A3011 RMK A01 T01260015  RH  047%=      5-min Rain = 0
KBI1 250350Z 07007KT 13/01 A3011 RMK A01 T01260014  RH  046%=      5-min Rain = 0
KBI1 250351Z 07007KT 13/01 A3011 RMK A01 T01260014  RH  046%=      5-min Rain = 0
KBI1 250352Z 07009KT 13/02 A3011 RMK A01 T01260015  RH  047%=      5-min Rain = 0
KBI1 250353Z 07007KT 13/02 A3011 RMK A01 T01260015  RH  047%=      5-min Rain = 0
KBI1 250354Z 07009KT 13/01 A3011 RMK A01 T01250014  RH  047%=      5-min Rain = 0
KBI1 250355Z 07009KT 13/01 A3011 RMK A01 T01250014  RH  047%=      5-min Rain = 0
KBI1 250356Z 07008KT 13/01 A3011 RMK A01 T01250014  RH  047%=      5-min Rain = 0
KBI1 250357Z 07008KT 13/02 A3011 RMK A01 T01250015  RH  047%=      5-min Rain = 0
KBI1 250358Z 07007KT 12/01 A3011 RMK A01 T01240014  RH  047%=      5-min Rain = 0
KBI1 250359Z 07008KT 12/01 A3011 RMK A01 T01240014  RH  047%=      5-min Rain = 0
KBI1 250400Z 07008KT 12/01 A3011 RMK A01 T01240014  RH  047%=      5-min Rain = 0
KBI1 250401Z 07007KT 12/01 A3011 RMK A01 T01240014  RH  047%=      5-min Rain = 0
KBI1 250402Z 07007KT 12/01 A3011 RMK A01 T01230014  RH  047%=      5-min Rain = 0
KBI1 250403Z 07009KT 12/01 A3011 RMK A01 T01230014  RH  047%=      5-min Rain = 0
KBI1 250404Z 07008KT 12/01 A3011 RMK A01 T01230014  RH  047%=      5-min Rain = 0
KBI1 250405Z 07010KT 12/01 A3011 RMK A01 T01230014  RH  047%=      5-min Rain = 0
KBI1 250406Z 06008KT 12/01 A3011 RMK A01 T01240014  RH  047%=      5-min Rain = 0
KBI1 250407Z 07009KT 12/01 A3011 RMK A01 T01240014  RH  047%=      5-min Rain = 0
KBI1 250408Z 07008KT 12/01 A3011 RMK A01 T01240014  RH  047%=      5-min Rain = 0
KBI1 250409Z 06008KT 12/02 A3011 RMK A01 T01230015  RH  047%=      5-min Rain = 0
KBI1 250410Z 06008KT 12/01 A3011 RMK A01 T01220014  RH  048%=      5-min Rain = 0
KBI1 250411Z 06007KT 12/02 A3011 RMK A01 T01220015  RH  048%=      5-min Rain = 0
KBI1 250412Z 06009KT 12/01 A3011 RMK A01 T01210014  RH  048%=      5-min Rain = 0
KBI1 250413Z 07009KT 12/01 A3011 RMK A01 T01210014  RH  048%=      5-min Rain = 0
KBI1 250414Z 07009KT 12/01 A3012 RMK A01 T01210014  RH  048%=      5-min Rain = 0
KBI1 250415Z 08009KT 12/01 A3012 RMK A01 T01210014  RH  048%=      5-min Rain = 0
KBI1 250416Z 07008KT 12/01 A3012 RMK A01 T01210013  RH  048%=      5-min Rain = 0
KBI1 250417Z 08008KT 12/01 A3012 RMK A01 T01210014  RH  048%=      5-min Rain = 0
KBI1 250418Z 07008KT 12/01 A3012 RMK A01 T01200014  RH  048%=      5-min Rain = 0
KBI1 250419Z 07009KT 12/01 A3012 RMK A01 T01200014  RH  048%=      5-min Rain = 0
KBI1 250420Z 07008KT 12/01 A3012 RMK A01 T01200013  RH  048%=      5-min Rain = 0
KBI1 250421Z 07011KT 12/01 A3012 RMK A01 T01200013  RH  048%=      5-min Rain = 0
KBI1 250422Z 07010KT 12/01 A3012 RMK A01 T01210013  RH  048%=      5-min Rain = 0
KBI1 250423Z 07010KT 12/01 A3012 RMK A01 T01210013  RH  048%=      5-min Rain = 0
KBI1 250424Z 07009KT 12/01 A3012 RMK A01 T01210013  RH  048%=      5-min Rain = 0
KBI1 250425Z 07009KT 12/01 A3012 RMK A01 T01210013  RH  048%=      5-min Rain = 0
KBI1 250426Z 07008KT 12/01 A3012 RMK A01 T01210014  RH  048%=      5-min Rain = 0
KBI1 250427Z 07008G13KT 12/01 A3012 RMK A01 T01200013  RH  048%=      5-min Rain = 0
KBI1 250428Z 07009KT 12/01 A3012 RMK A01 T01200013  RH  048%=      5-min Rain = 0
KBI1 250429Z 07010KT 12/01 A3012 RMK A01 T01200013  RH  048%=      5-min Rain = 0
KBI1 250430Z 08009KT 12/01 A3012 RMK A01 T01200013  RH  048%=      5-min Rain = 0
KBI1 250431Z 08010KT 12/01 A3012 RMK A01 T01190014  RH  048%=      5-min Rain = 0
KBI1 250432Z 07009KT 12/01 A3012 RMK A01 T01190013  RH  048%=      5-min Rain = 0
KBI1 250433Z 07010KT 12/01 A3012 RMK A01 T01190013  RH  048%=      5-min Rain = 0
KBI1 250434Z 07010KT 12/01 A3012 RMK A01 T01190013  RH  048%=      5-min Rain = 0
KBI1 250435Z 07011KT 12/01 A3012 RMK A01 T01190013  RH  048%=      5-min Rain = 0
KBI1 250436Z 07008KT 12/01 A3012 RMK A01 T01190013  RH  048%=      5-min Rain = 0
KBI1 250437Z 07009KT 12/01 A3012 RMK A01 T01190014  RH  048%=      5-min Rain = 0
KBI1 250438Z 07010KT 12/01 A3012 RMK A01 T01180013  RH  049%=      5-min Rain = 0
KBI1 250439Z 07010KT 12/01 A3012 RMK A01 T01180013  RH  049%=      5-min Rain = 0
KBI1 250440Z 07008KT 12/01 A3012 RMK A01 T01170013  RH  049%=      5-min Rain = 0
KBI1 250441Z 07010KT 12/01 A3013 RMK A01 T01180013  RH  049%=      5-min Rain = 0
KBI1 250442Z 07011KT 12/01 A3013 RMK A01 T01180013  RH  049%=      5-min Rain = 0
KBI1 250443Z 07010KT 12/01 A3013 RMK A01 T01180013  RH  049%=      5-min Rain = 0
KBI1 250444Z 07010KT 12/01 A3013 RMK A01 T01170012  RH  048%=      5-min Rain = 0
KBI1 250445Z 07009KT 12/01 A3013 RMK A01 T01180013  RH  048%=      5-min Rain = 0
KBI1 250446Z 07009KT 12/01 A3013 RMK A01 T01170012  RH  049%=      5-min Rain = 0
KBI1 250447Z 07010KT 12/01 A3013 RMK A01 T01170012  RH  049%=      5-min Rain = 0
KBI1 250448Z 07010KT 12/01 A3013 RMK A01 T01170012  RH  049%=      5-min Rain = 0
KBI1 250449Z 07011KT 12/01 A3013 RMK A01 T01170012  RH  049%=      5-min Rain = 0
KBI1 250450Z 07009KT 12/01 A3013 RMK A01 T01170012  RH  049%=      5-min Rain = 0
KBI1 250451Z 07008KT 12/01 A3013 RMK A01 T01160012  RH  049%=      5-min Rain = 0
KBI1 250452Z 06008KT 12/01 A3013 RMK A01 T01160012  RH  049%=      5-min Rain = 0
KBI1 250453Z 06009KT 12/01 A3013 RMK A01 T01150012  RH  049%=      5-min Rain = 0
KBI1 250454Z 06008KT 12/01 A3014 RMK A01 T01150012  RH  049%=      5-min Rain = 0
KBI1 250455Z 06007KT 12/01 A3014 RMK A01 T01150012  RH  049%=      5-min Rain = 0
KBI1 250456Z 05007KT 11/01 A3013 RMK A01 T01140012  RH  050%=      5-min Rain = 0
KBI1 250457Z 05007KT 11/01 A3013 RMK A01 T01130013  RH  050%=      5-min Rain = 0
KBI1 250458Z 05008KT 11/01 A3013 RMK A01 T01120013  RH  050%=      5-min Rain = 0
KBI1 250459Z 06008KT 11/01 A3013 RMK A01 T01120012  RH  050%=      5-min Rain = 0
KBI1 250500Z 05007KT 11/01 A3014 RMK A01 T01120012  RH  050%=      5-min Rain = 0
KBI1 250501Z 06007KT 11/01 A3014 RMK A01 T01110012  RH  050%=      5-min Rain = 0
KBI1 250502Z 06008KT 11/01 A3014 RMK A01 T01110012  RH  050%=      5-min Rain = 0
KBI1 250503Z 06008KT 11/01 A3013 RMK A01 T01110012  RH  050%=      5-min Rain = 0
KBI1 250504Z 06008KT 11/01 A3013 RMK A01 T01120012  RH  050%=      5-min Rain = 0
KBI1 250505Z 06009KT 11/01 A3014 RMK A01 T01120012  RH  050%=      5-min Rain = 0
KBI1 250506Z 06010KT 11/01 A3014 RMK A01 T01120011  RH  050%=      5-min Rain = 0
KBI1 250507Z 06007KT 11/01 A3014 RMK A01 T01130011  RH  049%=      5-min Rain = 0
KBI1 250508Z 06008KT 11/01 A3014 RMK A01 T01130011  RH  049%=      5-min Rain = 0
KBI1 250509Z 06008KT 11/01 A3014 RMK A01 T01130011  RH  049%=      5-min Rain = 0
KBI1 250510Z 05010KT 11/01 A3014 RMK A01 T01130010  RH  049%=      5-min Rain = 0
KBI1 250511Z 06009KT 11/01 A3014 RMK A01 T01130009  RH  049%=      5-min Rain = 0
KBI1 250512Z 05012KT 11/01 A3014 RMK A01 T01140009  RH  049%=      5-min Rain = 0
KBI1 250513Z 05011KT 11/01 A3013 RMK A01 T01140009  RH  048%=      5-min Rain = 0
KBI1 250514Z 06011KT 11/01 A3013 RMK A01 T01140009  RH  048%=      5-min Rain = 0
KBI1 250515Z 05011KT 11/01 A3013 RMK A01 T01140009  RH  048%=      5-min Rain = 0
KBI1 250516Z 06012KT 11/01 A3013 RMK A01 T01140009  RH  048%=      5-min Rain = 0
KBI1 250517Z 06011KT 11/01 A3013 RMK A01 T01140009  RH  049%=      5-min Rain = 0
KBI1 250518Z 06010KT 11/01 A3013 RMK A01 T01130009  RH  049%=      5-min Rain = 0
KBI1 250519Z 06013KT 11/01 A3013 RMK A01 T01130010  RH  049%=      5-min Rain = 0
KBI1 250520Z 06011KT 11/01 A3013 RMK A01 T01120010  RH  049%=      5-min Rain = 0
KBI1 250521Z 06009KT 11/01 A3013 RMK A01 T01120010  RH  049%=      5-min Rain = 0
KBI1 250522Z 06010KT 11/01 A3013 RMK A01 T01110010  RH  050%=      5-min Rain = 0
KBI1 250523Z 06010KT 11/01 A3013 RMK A01 T01110010  RH  050%=      5-min Rain = 0
KBI1 250524Z 06011KT 11/01 A3013 RMK A01 T01100010  RH  050%=      5-min Rain = 0
KBI1 250525Z 06012G17KT 11/01 A3013 RMK A01 T01100010  RH  050%=      5-min Rain = 0
KBI1 250526Z 06011KT 11/01 A3013 RMK A01 T01100009  RH  050%=      5-min Rain = 0
KBI1 250527Z 06010KT 11/01 A3013 RMK A01 T01100010  RH  050%=      5-min Rain = 0
KBI1 250528Z 06012KT 11/01 A3014 RMK A01 T01100009  RH  050%=      5-min Rain = 0
KBI1 250529Z 06010KT 11/01 A3014 RMK A01 T01100009  RH  050%=      5-min Rain = 0
KBI1 250530Z 06011KT 11/01 A3014 RMK A01 T01100009  RH  050%=      5-min Rain = 0
KBI1 250531Z 06011KT 11/01 A3014 RMK A01 T01100009  RH  050%=      5-min Rain = 0
KBI1 250532Z 06009KT 11/01 A3014 RMK A01 T01090009  RH  050%=      5-min Rain = 0
KBI1 250533Z 06010KT 11/01 A3014 RMK A01 T01090009  RH  050%=      5-min Rain = 0
KBI1 250534Z 06009KT 11/01 A3015 RMK A01 T01090009  RH  050%=      5-min Rain = 0
KBI1 250535Z 06011KT 11/01 A3015 RMK A01 T01090009  RH  050%=      5-min Rain = 0
KBI1 250536Z 07009KT 11/01 A3015 RMK A01 T01090009  RH  050%=      5-min Rain = 0
KBI1 250537Z 06011KT 11/01 A3015 RMK A01 T01080009  RH  050%=      5-min Rain = 0
KBI1 250538Z 06008KT 11/01 A3014 RMK A01 T01070009  RH  050%=      5-min Rain = 0
KBI1 250539Z 07009KT 11/01 A3014 RMK A01 T01070009  RH  051%=      5-min Rain = 0
KBI1 250540Z 06007KT 11/01 A3014 RMK A01 T01070009  RH  051%=      5-min Rain = 0
KBI1 250541Z 06009KT 11/01 A3014 RMK A01 T01060009  RH  051%=      5-min Rain = 0
KBI1 250542Z 06009KT 11/01 A3014 RMK A01 T01060009  RH  051%=      5-min Rain = 0
KBI1 250543Z 07008KT 11/01 A3014 RMK A01 T01050009  RH  051%=      5-min Rain = 0
KBI1 250544Z 06007KT 11/01 A3014 RMK A01 T01050009  RH  051%=      5-min Rain = 0
KBI1 250545Z 07008KT 10/01 A3014 RMK A01 T01040009  RH  051%=      5-min Rain = 0
KBI1 250546Z 07008KT 10/01 A3014 RMK A01 T01040008  RH  051%=      5-min Rain = 0
KBI1 250547Z 07008KT 10/01 A3014 RMK A01 T01040009  RH  051%=      5-min Rain = 0
KBI1 250548Z 06010KT 10/01 A3014 RMK A01 T01040009  RH  052%=      5-min Rain = 0
KBI1 250549Z 06007KT 10/01 A3014 RMK A01 T01030009  RH  052%=      5-min Rain = 0
KBI1 250550Z 07008KT 10/01 A3014 RMK A01 T01030008  RH  052%=      5-min Rain = 0
KBI1 250551Z 06008KT 10/01 A3014 RMK A01 T01020009  RH  052%=      5-min Rain = 0
KBI1 250552Z 07008KT 10/01 A3014 RMK A01 T01020008  RH  052%=      5-min Rain = 0
KBI1 250553Z 06009KT 10/01 A3014 RMK A01 T01010009  RH  053%=      5-min Rain = 0
KBI1 250554Z 07008KT 10/01 A3014 RMK A01 T01010009  RH  053%=      5-min Rain = 0
KBI1 250555Z 07007KT 10/01 A3014 RMK A01 T01010009  RH  053%=      5-min Rain = 0
KBI1 250556Z 07008KT 10/01 A3014 RMK A01 T01000009  RH  053%=      5-min Rain = 0
KBI1 250557Z 07007KT 10/01 A3014 RMK A01 T01000009  RH  053%=      5-min Rain = 0
KBI1 250558Z 07007KT 10/01 A3014 RMK A01 T01000009  RH  053%=      5-min Rain = 0
KBI1 250559Z 07009KT 10/01 A3014 RMK A01 T00990009  RH  053%=      5-min Rain = 0

Page generated in 0.0652 seconds.